<?xml version='1.0' encoding='UTF-8'?><gpx version="1.1" creator="JPX - https://github.com/jenetics/jpx" xmlns="http://www.topografix.com/GPX/1/1"><trk><trkseg><trkpt lat="39.071794" lon="16.2842119"><ele>571.9999999999999</ele><time>2026-05-04T19:49:28.888Z</time></trkpt><trkpt lat="39.0717438" lon="16.284268"><ele>572.0</ele><time>2026-05-04T19:49:33.888Z</time></trkpt><trkpt lat="39.0716871" lon="16.2843312"><ele>572.0</ele><time>2026-05-04T19:49:37.887Z</time></trkpt><trkpt lat="39.0716346" lon="16.2843881"><ele>572.0</ele><time>2026-05-04T19:49:42.887Z</time></trkpt><trkpt lat="39.0716057" lon="16.2844788"><ele>572.0</ele><time>2026-05-04T19:49:47.887Z</time></trkpt><trkpt lat="39.0715732" lon="16.2845551"><ele>571.9999999999999</ele><time>2026-05-04T19:49:52.887Z</time></trkpt><trkpt lat="39.0715403" lon="16.284637"><ele>572.0</ele><time>2026-05-04T19:49:57.888Z</time></trkpt><trkpt lat="39.07152" lon="16.2847177"><ele>568.5714285714286</ele><time>2026-05-04T19:50:01.887Z</time></trkpt><trkpt lat="39.0714971" lon="16.2848049"><ele>565.1428571428571</ele><time>2026-05-04T19:50:06.888Z</time></trkpt><trkpt lat="39.0714754" lon="16.2848886"><ele>561.7142857142858</ele><time>2026-05-04T19:50:10.975Z</time></trkpt><trkpt lat="39.071463" lon="16.2849875"><ele>558.2857142857142</ele><time>2026-05-04T19:50:15.872Z</time></trkpt><trkpt lat="39.0714397" lon="16.2850782"><ele>554.8571428571429</ele><time>2026-05-04T19:50:19.871Z</time></trkpt><trkpt lat="39.0714274" lon="16.28516"><ele>551.4285714285714</ele><time>2026-05-04T19:50:22.888Z</time></trkpt><trkpt lat="39.071406" lon="16.2852526"><ele>548.0</ele><time>2026-05-04T19:50:27.887Z</time></trkpt><trkpt lat="39.0713847" lon="16.2853357"><ele>548.0000000000001</ele><time>2026-05-04T19:50:31.887Z</time></trkpt><trkpt lat="39.0713659" lon="16.2854298"><ele>548.0</ele><time>2026-05-04T19:50:36.904Z</time></trkpt><trkpt lat="39.0713514" lon="16.2855102"><ele>548.0</ele><time>2026-05-04T19:50:40.921Z</time></trkpt><trkpt lat="39.0713137" lon="16.2855914"><ele>548.0</ele><time>2026-05-04T19:50:45.739Z</time></trkpt><trkpt lat="39.0712504" lon="16.2856519"><ele>548.0</ele><time>2026-05-04T19:50:50.887Z</time></trkpt><trkpt lat="39.0711865" lon="16.2856712"><ele>548.0000000000001</ele><time>2026-05-04T19:50:54.888Z</time></trkpt><trkpt lat="39.0711088" lon="16.2856747"><ele>548.0</ele><time>2026-05-04T19:50:59.887Z</time></trkpt><trkpt lat="39.0710346" lon="16.285701"><ele>545.4285714285714</ele><time>2026-05-04T19:51:04.888Z</time></trkpt><trkpt lat="39.0709691" lon="16.2857367"><ele>542.8571428571429</ele><time>2026-05-04T19:51:09.844Z</time></trkpt><trkpt lat="39.0709042" lon="16.2857754"><ele>540.2857142857142</ele><time>2026-05-04T19:51:14.887Z</time></trkpt><trkpt lat="39.0708413" lon="16.2858034"><ele>537.7142857142858</ele><time>2026-05-04T19:51:19.887Z</time></trkpt><trkpt lat="39.0707732" lon="16.2858339"><ele>535.1428571428571</ele><time>2026-05-04T19:51:24.887Z</time></trkpt><trkpt lat="39.0707039" lon="16.2858556"><ele>532.5714285714286</ele><time>2026-05-04T19:51:29.88Z</time></trkpt><trkpt lat="39.0706512" lon="16.2859067"><ele>530.0</ele><time>2026-05-04T19:51:34.888Z</time></trkpt><trkpt lat="39.0706139" lon="16.2859816"><ele>529.9999999999999</ele><time>2026-05-04T19:51:39.888Z</time></trkpt><trkpt lat="39.0705965" lon="16.2860722"><ele>530.0</ele><time>2026-05-04T19:51:44.888Z</time></trkpt><trkpt lat="39.070586" lon="16.2861673"><ele>530.0</ele><time>2026-05-04T19:51:49.899Z</time></trkpt><trkpt lat="39.0705776" lon="16.2862617"><ele>530.0</ele><time>2026-05-04T19:51:54.887Z</time></trkpt><trkpt lat="39.070572" lon="16.2863532"><ele>530.0</ele><time>2026-05-04T19:51:59.887Z</time></trkpt><trkpt lat="39.0705629" lon="16.2864428"><ele>529.9999999999999</ele><time>2026-05-04T19:52:04.804Z</time></trkpt><trkpt lat="39.0705493" lon="16.2865324"><ele>530.0</ele><time>2026-05-04T19:52:09.879Z</time></trkpt><trkpt lat="39.0705368" lon="16.28663"><ele>532.1428571428571</ele><time>2026-05-04T19:52:14.879Z</time></trkpt><trkpt lat="39.0705281" lon="16.2867273"><ele>534.2857142857142</ele><time>2026-05-04T19:52:19.888Z</time></trkpt><trkpt lat="39.0705241" lon="16.286826"><ele>536.4285714285714</ele><time>2026-05-04T19:52:24.888Z</time></trkpt><trkpt lat="39.0705221" lon="16.286915"><ele>538.5714285714286</ele><time>2026-05-04T19:52:29.887Z</time></trkpt><trkpt lat="39.0705182" lon="16.2870098"><ele>540.7142857142858</ele><time>2026-05-04T19:52:34.888Z</time></trkpt><trkpt lat="39.0705184" lon="16.2871027"><ele>542.8571428571429</ele><time>2026-05-04T19:52:39.803Z</time></trkpt><trkpt lat="39.0705126" lon="16.2871988"><ele>545.0</ele><time>2026-05-04T19:52:44.884Z</time></trkpt><trkpt lat="39.0704953" lon="16.2872923"><ele>546.7142857142858</ele><time>2026-05-04T19:52:49.888Z</time></trkpt><trkpt lat="39.0704835" lon="16.287379"><ele>548.4285714285714</ele><time>2026-05-04T19:52:54.886Z</time></trkpt><trkpt lat="39.0704821" lon="16.2874703"><ele>550.1428571428571</ele><time>2026-05-04T19:52:59.887Z</time></trkpt><trkpt lat="39.0704707" lon="16.2875623"><ele>551.8571428571429</ele><time>2026-05-04T19:53:04.886Z</time></trkpt><trkpt lat="39.070464" lon="16.2876561"><ele>553.5714285714286</ele><time>2026-05-04T19:53:09.887Z</time></trkpt><trkpt lat="39.0704766" lon="16.2877474"><ele>555.2857142857143</ele><time>2026-05-04T19:53:14.886Z</time></trkpt><trkpt lat="39.0704922" lon="16.2878372"><ele>557.0</ele><time>2026-05-04T19:53:19.887Z</time></trkpt><trkpt lat="39.0705212" lon="16.2879215"><ele>557.0</ele><time>2026-05-04T19:53:24.887Z</time></trkpt><trkpt lat="39.0705735" lon="16.2879863"><ele>557.0</ele><time>2026-05-04T19:53:29.888Z</time></trkpt><trkpt lat="39.0706342" lon="16.2880435"><ele>557.0</ele><time>2026-05-04T19:53:34.887Z</time></trkpt><trkpt lat="39.0706898" lon="16.2880979"><ele>557.0</ele><time>2026-05-04T19:53:39.757Z</time></trkpt><trkpt lat="39.0707391" lon="16.2881698"><ele>557.0</ele><time>2026-05-04T19:53:44.785Z</time></trkpt><trkpt lat="39.0707847" lon="16.2882434"><ele>557.0</ele><time>2026-05-04T19:53:49.926Z</time></trkpt><trkpt lat="39.0708284" lon="16.2883163"><ele>557.0</ele><time>2026-05-04T19:53:54.887Z</time></trkpt><trkpt lat="39.0708779" lon="16.2883874"><ele>556.7142857142858</ele><time>2026-05-04T19:53:59.887Z</time></trkpt><trkpt lat="39.0709222" lon="16.2884584"><ele>556.4285714285714</ele><time>2026-05-04T19:54:04.887Z</time></trkpt><trkpt lat="39.0709266" lon="16.2885545"><ele>556.1428571428571</ele><time>2026-05-04T19:54:09.887Z</time></trkpt><trkpt lat="39.0708874" lon="16.2886238"><ele>555.8571428571429</ele><time>2026-05-04T19:54:13.82Z</time></trkpt><trkpt lat="39.070827" lon="16.2886583"><ele>555.5714285714286</ele><time>2026-05-04T19:54:17.677Z</time></trkpt><trkpt lat="39.0707605" lon="16.2886686"><ele>555.2857142857143</ele><time>2026-05-04T19:54:21.764Z</time></trkpt><trkpt lat="39.0706939" lon="16.2886499"><ele>555.0</ele><time>2026-05-04T19:54:25.858Z</time></trkpt><trkpt lat="39.0706163" lon="16.2886372"><ele>555.0000000000001</ele><time>2026-05-04T19:54:30.887Z</time></trkpt><trkpt lat="39.0705506" lon="16.2886351"><ele>555.0</ele><time>2026-05-04T19:54:34.887Z</time></trkpt><trkpt lat="39.0704729" lon="16.2886327"><ele>555.0</ele><time>2026-05-04T19:54:39.888Z</time></trkpt><trkpt lat="39.0704007" lon="16.2886459"><ele>555.0</ele><time>2026-05-04T19:54:44.888Z</time></trkpt><trkpt lat="39.0703313" lon="16.2886733"><ele>555.0</ele><time>2026-05-04T19:54:49.887Z</time></trkpt><trkpt lat="39.0702691" lon="16.2887061"><ele>555.0000000000001</ele><time>2026-05-04T19:54:54.685Z</time></trkpt><trkpt lat="39.0702145" lon="16.2887709"><ele>555.0</ele><time>2026-05-04T19:54:59.888Z</time></trkpt><trkpt lat="39.0701716" lon="16.2888465"><ele>555.0000000000001</ele><time>2026-05-04T19:55:04.888Z</time></trkpt><trkpt lat="39.0701357" lon="16.2889253"><ele>555.0</ele><time>2026-05-04T19:55:09.865Z</time></trkpt><trkpt lat="39.0701108" lon="16.2890184"><ele>555.0</ele><time>2026-05-04T19:55:14.95Z</time></trkpt><trkpt lat="39.0701054" lon="16.2891034"><ele>555.0</ele><time>2026-05-04T19:55:19.443Z</time></trkpt><trkpt lat="39.0700799" lon="16.2891899"><ele>555.0</ele><time>2026-05-04T19:55:24.285Z</time></trkpt><trkpt lat="39.0700154" lon="16.2892392"><ele>555.0000000000001</ele><time>2026-05-04T19:55:28.887Z</time></trkpt><trkpt lat="39.0699519" lon="16.289261"><ele>555.0</ele><time>2026-05-04T19:55:32.986Z</time></trkpt><trkpt lat="39.0698741" lon="16.2892578"><ele>553.5714285714287</ele><time>2026-05-04T19:55:37.888Z</time></trkpt><trkpt lat="39.0698068" lon="16.289281"><ele>552.1428571428571</ele><time>2026-05-04T19:55:42.878Z</time></trkpt><trkpt lat="39.0697523" lon="16.2893258"><ele>550.7142857142858</ele><time>2026-05-04T19:55:47.821Z</time></trkpt><trkpt lat="39.0696877" lon="16.2893736"><ele>549.2857142857143</ele><time>2026-05-04T19:55:53.886Z</time></trkpt><trkpt lat="39.0696331" lon="16.2894391"><ele>547.8571428571429</ele><time>2026-05-04T19:55:58.887Z</time></trkpt><trkpt lat="39.0695885" lon="16.2895131"><ele>546.4285714285714</ele><time>2026-05-04T19:56:03.838Z</time></trkpt><trkpt lat="39.06955" lon="16.289591"><ele>545.0</ele><time>2026-05-04T19:56:08.887Z</time></trkpt><trkpt lat="39.0695334" lon="16.2896803"><ele>548.8571428571429</ele><time>2026-05-04T19:56:13.887Z</time></trkpt><trkpt lat="39.06951" lon="16.2897687"><ele>552.7142857142858</ele><time>2026-05-04T19:56:18.887Z</time></trkpt><trkpt lat="39.0694878" lon="16.2898562"><ele>556.5714285714286</ele><time>2026-05-04T19:56:23.887Z</time></trkpt><trkpt lat="39.0694483" lon="16.2899389"><ele>560.4285714285714</ele><time>2026-05-04T19:56:28.888Z</time></trkpt><trkpt lat="39.0694112" lon="16.2900227"><ele>564.2857142857142</ele><time>2026-05-04T19:56:33.887Z</time></trkpt><trkpt lat="39.0693535" lon="16.2900865"><ele>568.1428571428571</ele><time>2026-05-04T19:56:38.887Z</time></trkpt><trkpt lat="39.0692945" lon="16.2901442"><ele>572.0</ele><time>2026-05-04T19:56:43.888Z</time></trkpt><trkpt lat="39.0692358" lon="16.2902034"><ele>571.9999999999999</ele><time>2026-05-04T19:56:48.886Z</time></trkpt><trkpt lat="39.0691816" lon="16.2902659"><ele>572.0</ele><time>2026-05-04T19:56:53.863Z</time></trkpt><trkpt lat="39.0691271" lon="16.2903338"><ele>572.0</ele><time>2026-05-04T19:56:58.887Z</time></trkpt><trkpt lat="39.0690742" lon="16.290407"><ele>572.0</ele><time>2026-05-04T19:57:03.895Z</time></trkpt><trkpt lat="39.0690229" lon="16.2904729"><ele>572.0</ele><time>2026-05-04T19:57:08.887Z</time></trkpt><trkpt lat="39.0689744" lon="16.2905441"><ele>571.9999999999999</ele><time>2026-05-04T19:57:13.887Z</time></trkpt><trkpt lat="39.0689258" lon="16.2906024"><ele>572.0</ele><time>2026-05-04T19:57:18.749Z</time></trkpt><trkpt lat="39.0688758" lon="16.2906614"><ele>569.1428571428571</ele><time>2026-05-04T19:57:22.887Z</time></trkpt><trkpt lat="39.0688359" lon="16.2907326"><ele>566.2857142857142</ele><time>2026-05-04T19:57:27.888Z</time></trkpt><trkpt lat="39.0687971" lon="16.2908118"><ele>563.4285714285714</ele><time>2026-05-04T19:57:32.838Z</time></trkpt><trkpt lat="39.0687646" lon="16.2908973"><ele>560.5714285714286</ele><time>2026-05-04T19:57:37.887Z</time></trkpt><trkpt lat="39.0687391" lon="16.2909757"><ele>557.7142857142858</ele><time>2026-05-04T19:57:42.888Z</time></trkpt><trkpt lat="39.068719" lon="16.2910607"><ele>554.8571428571429</ele><time>2026-05-04T19:57:47.888Z</time></trkpt><trkpt lat="39.0687022" lon="16.2911457"><ele>552.0</ele><time>2026-05-04T19:57:52.9Z</time></trkpt><trkpt lat="39.0686795" lon="16.2912231"><ele>552.0</ele><time>2026-05-04T19:57:57.886Z</time></trkpt><trkpt lat="39.0686467" lon="16.2913004"><ele>552.0</ele><time>2026-05-04T19:58:02.887Z</time></trkpt><trkpt lat="39.0686164" lon="16.2913823"><ele>552.0</ele><time>2026-05-04T19:58:07.888Z</time></trkpt><trkpt lat="39.0685879" lon="16.2914673"><ele>552.0</ele><time>2026-05-04T19:58:12.879Z</time></trkpt><trkpt lat="39.0685599" lon="16.2915484"><ele>552.0</ele><time>2026-05-04T19:58:17.888Z</time></trkpt><trkpt lat="39.0685337" lon="16.2916399"><ele>552.0</ele><time>2026-05-04T19:58:22.887Z</time></trkpt><trkpt lat="39.0685067" lon="16.2917249"><ele>552.0</ele><time>2026-05-04T19:58:27.888Z</time></trkpt><trkpt lat="39.0684734" lon="16.2918058"><ele>555.8571428571429</ele><time>2026-05-04T19:58:32.886Z</time></trkpt><trkpt lat="39.0684428" lon="16.2918916"><ele>559.7142857142858</ele><time>2026-05-04T19:58:37.8Z</time></trkpt><trkpt lat="39.0684007" lon="16.2919714"><ele>563.5714285714286</ele><time>2026-05-04T19:58:42.887Z</time></trkpt><trkpt lat="39.0683759" lon="16.2920629"><ele>567.4285714285714</ele><time>2026-05-04T19:58:47.886Z</time></trkpt><trkpt lat="39.068359" lon="16.292154"><ele>571.2857142857142</ele><time>2026-05-04T19:58:52.836Z</time></trkpt><trkpt lat="39.0683249" lon="16.2922393"><ele>575.1428571428571</ele><time>2026-05-04T19:58:57.887Z</time></trkpt><trkpt lat="39.0683001" lon="16.2923298"><ele>579.0</ele><time>2026-05-04T19:59:02.887Z</time></trkpt><trkpt lat="39.0682785" lon="16.2924148"><ele>576.5714285714286</ele><time>2026-05-04T19:59:07.886Z</time></trkpt><trkpt lat="39.0682538" lon="16.29251"><ele>574.1428571428571</ele><time>2026-05-04T19:59:13.225Z</time></trkpt><trkpt lat="39.0682259" lon="16.2925918"><ele>571.7142857142858</ele><time>2026-05-04T19:59:17.785Z</time></trkpt><trkpt lat="39.0682021" lon="16.2926675"><ele>569.2857142857142</ele><time>2026-05-04T19:59:22.385Z</time></trkpt><trkpt lat="39.0681801" lon="16.292749"><ele>566.8571428571429</ele><time>2026-05-04T19:59:26.976Z</time></trkpt><trkpt lat="39.0681507" lon="16.2928318"><ele>564.4285714285714</ele><time>2026-05-04T19:59:31.888Z</time></trkpt><trkpt lat="39.0681183" lon="16.2929176"><ele>562.0</ele><time>2026-05-04T19:59:36.886Z</time></trkpt><trkpt lat="39.068101" lon="16.2930133"><ele>563.8571428571429</ele><time>2026-05-04T19:59:41.979Z</time></trkpt><trkpt lat="39.0680852" lon="16.2930987"><ele>565.7142857142858</ele><time>2026-05-04T19:59:46.887Z</time></trkpt><trkpt lat="39.0680597" lon="16.2931886"><ele>567.5714285714286</ele><time>2026-05-04T19:59:51.887Z</time></trkpt><trkpt lat="39.0680349" lon="16.293274"><ele>569.4285714285714</ele><time>2026-05-04T19:59:56.887Z</time></trkpt><trkpt lat="39.0680056" lon="16.2933653"><ele>571.2857142857142</ele><time>2026-05-04T20:00:01.978Z</time></trkpt><trkpt lat="39.0679781" lon="16.2934601"><ele>573.1428571428571</ele><time>2026-05-04T20:00:06.973Z</time></trkpt><trkpt lat="39.0679559" lon="16.2935497"><ele>575.0</ele><time>2026-05-04T20:00:11.887Z</time></trkpt><trkpt lat="39.0679189" lon="16.2936241"><ele>575.0</ele><time>2026-05-04T20:00:15.887Z</time></trkpt><trkpt lat="39.067874" lon="16.293686"><ele>575.0</ele><time>2026-05-04T20:00:19.888Z</time></trkpt><trkpt lat="39.0678752" lon="16.2935917"><ele>575.0</ele><time>2026-05-04T20:00:24.861Z</time></trkpt><trkpt lat="39.067903" lon="16.2935101"><ele>575.0</ele><time>2026-05-04T20:00:28.736Z</time></trkpt><trkpt lat="39.0679435" lon="16.2934336"><ele>575.0</ele><time>2026-05-04T20:00:32.887Z</time></trkpt><trkpt lat="39.0679756" lon="16.2933581"><ele>575.0</ele><time>2026-05-04T20:00:36.86Z</time></trkpt><trkpt lat="39.0680029" lon="16.2932723"><ele>575.0</ele><time>2026-05-04T20:00:40.887Z</time></trkpt><trkpt lat="39.0680291" lon="16.2931871"><ele>575.0</ele><time>2026-05-04T20:00:43.878Z</time></trkpt><trkpt lat="39.0680631" lon="16.2931094"><ele>575.0</ele><time>2026-05-04T20:00:46.82Z</time></trkpt><trkpt lat="39.0680963" lon="16.2930268"><ele>575.0</ele><time>2026-05-04T20:00:49.887Z</time></trkpt><trkpt lat="39.0681232" lon="16.2929451"><ele>575.0</ele><time>2026-05-04T20:00:52.887Z</time></trkpt><trkpt lat="39.0681557" lon="16.2928669"><ele>575.0</ele><time>2026-05-04T20:00:55.887Z</time></trkpt><trkpt lat="39.0681834" lon="16.2927834"><ele>575.0</ele><time>2026-05-04T20:00:58.888Z</time></trkpt><trkpt lat="39.0682051" lon="16.2927029"><ele>575.0</ele><time>2026-05-04T20:01:01.908Z</time></trkpt><trkpt lat="39.0682337" lon="16.2926001"><ele>575.5714285714286</ele><time>2026-05-04T20:01:05.888Z</time></trkpt><trkpt lat="39.0682504" lon="16.2925187"><ele>576.1428571428571</ele><time>2026-05-04T20:01:08.798Z</time></trkpt><trkpt lat="39.0682609" lon="16.2924258"><ele>576.7142857142857</ele><time>2026-05-04T20:01:11.888Z</time></trkpt><trkpt lat="39.0682825" lon="16.2923409"><ele>577.2857142857142</ele><time>2026-05-04T20:01:14.888Z</time></trkpt><trkpt lat="39.068309" lon="16.2922514"><ele>577.8571428571429</ele><time>2026-05-04T20:01:18.339Z</time></trkpt><trkpt lat="39.0683352" lon="16.2921506"><ele>578.4285714285713</ele><time>2026-05-04T20:01:21.996Z</time></trkpt><trkpt lat="39.0683698" lon="16.2920542"><ele>579.0</ele><time>2026-05-04T20:01:25.976Z</time></trkpt><trkpt lat="39.0683896" lon="16.2919664"><ele>578.9999999999999</ele><time>2026-05-04T20:01:28.886Z</time></trkpt><trkpt lat="39.0684128" lon="16.2918732"><ele>579.0</ele><time>2026-05-04T20:01:31.887Z</time></trkpt><trkpt lat="39.0684407" lon="16.2917827"><ele>579.0</ele><time>2026-05-04T20:01:35.021Z</time></trkpt><trkpt lat="39.0684661" lon="16.2916947"><ele>579.0</ele><time>2026-05-04T20:01:37.887Z</time></trkpt><trkpt lat="39.0685001" lon="16.2916155"><ele>579.0</ele><time>2026-05-04T20:01:40.923Z</time></trkpt><trkpt lat="39.0685555" lon="16.2915513"><ele>578.9999999999999</ele><time>2026-05-04T20:01:43.913Z</time></trkpt><trkpt lat="39.0685861" lon="16.2914631"><ele>579.0</ele><time>2026-05-04T20:01:46.887Z</time></trkpt><trkpt lat="39.0685971" lon="16.291359"><ele>574.5</ele><time>2026-05-04T20:01:49.887Z</time></trkpt><trkpt lat="39.068606" lon="16.2912584"><ele>570.0</ele><time>2026-05-04T20:01:52.888Z</time></trkpt><trkpt lat="39.0686056" lon="16.2911612"><ele>565.5</ele><time>2026-05-04T20:01:55.876Z</time></trkpt><trkpt lat="39.0686521" lon="16.2910722"><ele>561.0</ele><time>2026-05-04T20:01:58.839Z</time></trkpt><trkpt lat="39.0687059" lon="16.2909822"><ele>556.5</ele><time>2026-05-04T20:02:02.125Z</time></trkpt><trkpt lat="39.0687413" lon="16.2909096"><ele>552.0</ele><time>2026-05-04T20:02:04.686Z</time></trkpt><trkpt lat="39.0687651" lon="16.2908331"><ele>552.0</ele><time>2026-05-04T20:02:06.885Z</time></trkpt><trkpt lat="39.0687768" lon="16.2907523"><ele>552.0</ele><time>2026-05-04T20:02:08.887Z</time></trkpt><trkpt lat="39.0688022" lon="16.2906614"><ele>552.0</ele><time>2026-05-04T20:02:11.887Z</time></trkpt><trkpt lat="39.0688392" lon="16.2905921"><ele>552.0</ele><time>2026-05-04T20:02:14.886Z</time></trkpt><trkpt lat="39.0688943" lon="16.2905347"><ele>552.0</ele><time>2026-05-04T20:02:17.865Z</time></trkpt><trkpt lat="39.0689608" lon="16.2904813"><ele>552.0</ele><time>2026-05-04T20:02:20.898Z</time></trkpt><trkpt lat="39.0690264" lon="16.2904224"><ele>552.0</ele><time>2026-05-04T20:02:23.977Z</time></trkpt><trkpt lat="39.0690918" lon="16.2903825"><ele>554.8571428571429</ele><time>2026-05-04T20:02:26.888Z</time></trkpt><trkpt lat="39.0691496" lon="16.2903277"><ele>557.7142857142858</ele><time>2026-05-04T20:02:29.916Z</time></trkpt><trkpt lat="39.0692077" lon="16.2902882"><ele>560.5714285714286</ele><time>2026-05-04T20:02:32.887Z</time></trkpt><trkpt lat="39.0692596" lon="16.2902254"><ele>563.4285714285714</ele><time>2026-05-04T20:02:35.887Z</time></trkpt><trkpt lat="39.0693233" lon="16.2901658"><ele>566.2857142857142</ele><time>2026-05-04T20:02:38.898Z</time></trkpt><trkpt lat="39.0693843" lon="16.290104"><ele>569.1428571428571</ele><time>2026-05-04T20:02:41.899Z</time></trkpt><trkpt lat="39.0694279" lon="16.2900397"><ele>572.0</ele><time>2026-05-04T20:02:44.886Z</time></trkpt><trkpt lat="39.0694737" lon="16.2899732"><ele>571.9999999999999</ele><time>2026-05-04T20:02:47.821Z</time></trkpt><trkpt lat="39.0695167" lon="16.2898826"><ele>572.0</ele><time>2026-05-04T20:02:51.887Z</time></trkpt><trkpt lat="39.0695418" lon="16.2897949"><ele>572.0</ele><time>2026-05-04T20:02:55.887Z</time></trkpt><trkpt lat="39.069531" lon="16.2897135"><ele>572.0</ele><time>2026-05-04T20:02:59.888Z</time></trkpt><trkpt lat="39.0695599" lon="16.2896335"><ele>572.0</ele><time>2026-05-04T20:03:03.887Z</time></trkpt><trkpt lat="39.069591" lon="16.2895503"><ele>571.9999999999999</ele><time>2026-05-04T20:03:07.888Z</time></trkpt><trkpt lat="39.0696183" lon="16.2894622"><ele>572.0</ele><time>2026-05-04T20:03:11.796Z</time></trkpt><trkpt lat="39.0696695" lon="16.2893963"><ele>572.2857142857142</ele><time>2026-05-04T20:03:16.888Z</time></trkpt><trkpt lat="39.0697324" lon="16.2893741"><ele>572.5714285714286</ele><time>2026-05-04T20:03:20.921Z</time></trkpt><trkpt lat="39.0697998" lon="16.2893695"><ele>572.8571428571429</ele><time>2026-05-04T20:03:24.922Z</time></trkpt><trkpt lat="39.0698702" lon="16.2893959"><ele>573.1428571428571</ele><time>2026-05-04T20:03:29.425Z</time></trkpt><trkpt lat="39.0699298" lon="16.2894342"><ele>573.4285714285714</ele><time>2026-05-04T20:03:33.46Z</time></trkpt><trkpt lat="39.0699974" lon="16.2894808"><ele>573.7142857142857</ele><time>2026-05-04T20:03:38.442Z</time></trkpt><trkpt lat="39.0700679" lon="16.2895191"><ele>574.0</ele><time>2026-05-04T20:03:43.364Z</time></trkpt><trkpt lat="39.0701368" lon="16.2895276"><ele>574.0</ele><time>2026-05-04T20:03:48.381Z</time></trkpt><trkpt lat="39.0702029" lon="16.2894763"><ele>574.0</ele><time>2026-05-04T20:03:53.486Z</time></trkpt><trkpt lat="39.0702488" lon="16.2893987"><ele>574.0</ele><time>2026-05-04T20:03:58.399Z</time></trkpt><trkpt lat="39.070287" lon="16.2893236"><ele>574.0</ele><time>2026-05-04T20:04:03.417Z</time></trkpt><trkpt lat="39.0703225" lon="16.2892432"><ele>574.0</ele><time>2026-05-04T20:04:08.56Z</time></trkpt><trkpt lat="39.0703765" lon="16.2891778"><ele>574.0</ele><time>2026-05-04T20:04:13.845Z</time></trkpt><trkpt lat="39.0704202" lon="16.2891091"><ele>574.0</ele><time>2026-05-04T20:04:18.888Z</time></trkpt><trkpt lat="39.0704747" lon="16.2890597"><ele>574.0</ele><time>2026-05-04T20:04:23.888Z</time></trkpt><trkpt lat="39.0705291" lon="16.2890093"><ele>574.0</ele><time>2026-05-04T20:04:28.887Z</time></trkpt><trkpt lat="39.0705913" lon="16.2889737"><ele>574.0</ele><time>2026-05-04T20:04:33.887Z</time></trkpt><trkpt lat="39.0706641" lon="16.2889592"><ele>574.0</ele><time>2026-05-04T20:04:38.888Z</time></trkpt><trkpt lat="39.0707342" lon="16.2889498"><ele>574.0</ele><time>2026-05-04T20:04:43.888Z</time></trkpt><trkpt lat="39.0708023" lon="16.2889671"><ele>574.0</ele><time>2026-05-04T20:04:48.799Z</time></trkpt><trkpt lat="39.070868" lon="16.2889768"><ele>574.0</ele><time>2026-05-04T20:04:53.838Z</time></trkpt><trkpt lat="39.0709338" lon="16.2890081"><ele>574.8571428571429</ele><time>2026-05-04T20:04:58.888Z</time></trkpt><trkpt lat="39.071005" lon="16.2890294"><ele>575.7142857142858</ele><time>2026-05-04T20:05:03.888Z</time></trkpt><trkpt lat="39.0710796" lon="16.2890384"><ele>576.5714285714286</ele><time>2026-05-04T20:05:08.887Z</time></trkpt><trkpt lat="39.0711538" lon="16.2890215"><ele>577.4285714285714</ele><time>2026-05-04T20:05:13.887Z</time></trkpt><trkpt lat="39.0711963" lon="16.2889423"><ele>578.2857142857143</ele><time>2026-05-04T20:05:17.888Z</time></trkpt><trkpt lat="39.07122" lon="16.2888612"><ele>579.1428571428571</ele><time>2026-05-04T20:05:21.765Z</time></trkpt><trkpt lat="39.0712344" lon="16.288775"><ele>580.0</ele><time>2026-05-04T20:05:25.622Z</time></trkpt><trkpt lat="39.0712399" lon="16.2886916"><ele>580.0</ele><time>2026-05-04T20:05:29.459Z</time></trkpt><trkpt lat="39.0712329" lon="16.2886079"><ele>580.0</ele><time>2026-05-04T20:05:33.326Z</time></trkpt><trkpt lat="39.0712141" lon="16.2885275"><ele>580.0</ele><time>2026-05-04T20:05:37.239Z</time></trkpt><trkpt lat="39.0711985" lon="16.288448"><ele>580.0</ele><time>2026-05-04T20:05:41.238Z</time></trkpt><trkpt lat="39.0711823" lon="16.2883504"><ele>580.0</ele><time>2026-05-04T20:05:46.286Z</time></trkpt><trkpt lat="39.0711634" lon="16.2882584"><ele>580.0</ele><time>2026-05-04T20:05:51.198Z</time></trkpt><trkpt lat="39.0711478" lon="16.2881699"><ele>580.0</ele><time>2026-05-04T20:05:55.999Z</time></trkpt><trkpt lat="39.0711302" lon="16.2880702"><ele>580.5</ele><time>2026-05-04T20:06:00.888Z</time></trkpt><trkpt lat="39.0711145" lon="16.2879715"><ele>581.0</ele><time>2026-05-04T20:06:05.975Z</time></trkpt><trkpt lat="39.0710898" lon="16.2878822"><ele>581.5</ele><time>2026-05-04T20:06:10.887Z</time></trkpt><trkpt lat="39.0710879" lon="16.2877828"><ele>582.0</ele><time>2026-05-04T20:06:15.888Z</time></trkpt><trkpt lat="39.0711032" lon="16.287682"><ele>582.5</ele><time>2026-05-04T20:06:20.897Z</time></trkpt><trkpt lat="39.0711226" lon="16.2875985"><ele>583.0</ele><time>2026-05-04T20:06:24.887Z</time></trkpt><trkpt lat="39.0711539" lon="16.2875058"><ele>583.0000000000001</ele><time>2026-05-04T20:06:29.887Z</time></trkpt><trkpt lat="39.0711782" lon="16.2874139"><ele>583.0</ele><time>2026-05-04T20:06:34.888Z</time></trkpt><trkpt lat="39.0711931" lon="16.2873345"><ele>583.0</ele><time>2026-05-04T20:06:38.838Z</time></trkpt><trkpt lat="39.0712127" lon="16.2872568"><ele>583.0</ele><time>2026-05-04T20:06:42.76Z</time></trkpt><trkpt lat="39.0712282" lon="16.2871625"><ele>583.0</ele><time>2026-05-04T20:06:47.666Z</time></trkpt><trkpt lat="39.0712408" lon="16.2870825"><ele>583.0000000000001</ele><time>2026-05-04T20:06:51.501Z</time></trkpt><trkpt lat="39.0712315" lon="16.2869997"><ele>583.0</ele><time>2026-05-04T20:06:55.483Z</time></trkpt><trkpt lat="39.0712227" lon="16.2869106"><ele>582.2857142857143</ele><time>2026-05-04T20:07:00.49Z</time></trkpt><trkpt lat="39.0712279" lon="16.2868237"><ele>581.5714285714286</ele><time>2026-05-04T20:07:04.887Z</time></trkpt><trkpt lat="39.0712348" lon="16.286742"><ele>580.8571428571429</ele><time>2026-05-04T20:07:08.887Z</time></trkpt><trkpt lat="39.0712479" lon="16.2866581"><ele>580.1428571428571</ele><time>2026-05-04T20:07:12.77Z</time></trkpt><trkpt lat="39.0712604" lon="16.2865781"><ele>579.4285714285714</ele><time>2026-05-04T20:07:16.604Z</time></trkpt><trkpt lat="39.0712806" lon="16.2864941"><ele>578.7142857142858</ele><time>2026-05-04T20:07:20.858Z</time></trkpt><trkpt lat="39.0713224" lon="16.2864143"><ele>578.0</ele><time>2026-05-04T20:07:25.764Z</time></trkpt><trkpt lat="39.0713659" lon="16.286343"><ele>576.7142857142858</ele><time>2026-05-04T20:07:30.656Z</time></trkpt><trkpt lat="39.0714149" lon="16.2862853"><ele>575.4285714285714</ele><time>2026-05-04T20:07:34.579Z</time></trkpt><trkpt lat="39.0714673" lon="16.2862357"><ele>574.1428571428571</ele><time>2026-05-04T20:07:38.684Z</time></trkpt><trkpt lat="39.0715236" lon="16.2861836"><ele>572.8571428571429</ele><time>2026-05-04T20:07:43.888Z</time></trkpt><trkpt lat="39.0715821" lon="16.2861346"><ele>571.5714285714286</ele><time>2026-05-04T20:07:48.888Z</time></trkpt><trkpt lat="39.0716404" lon="16.2860802"><ele>570.2857142857143</ele><time>2026-05-04T20:07:53.887Z</time></trkpt><trkpt lat="39.0716853" lon="16.286006"><ele>569.0</ele><time>2026-05-04T20:07:58.887Z</time></trkpt><trkpt lat="39.0717241" lon="16.2859396"><ele>570.5714285714287</ele><time>2026-05-04T20:08:02.887Z</time></trkpt><trkpt lat="39.071787" lon="16.2858829"><ele>572.1428571428571</ele><time>2026-05-04T20:08:07.887Z</time></trkpt><trkpt lat="39.0718294" lon="16.2858227"><ele>573.7142857142858</ele><time>2026-05-04T20:08:11.887Z</time></trkpt><trkpt lat="39.071863" lon="16.2857334"><ele>575.2857142857143</ele><time>2026-05-04T20:08:16.887Z</time></trkpt><trkpt lat="39.0718996" lon="16.2856653"><ele>576.8571428571429</ele><time>2026-05-04T20:08:20.888Z</time></trkpt><trkpt lat="39.0719177" lon="16.2855685"><ele>578.4285714285714</ele><time>2026-05-04T20:08:25.888Z</time></trkpt><trkpt lat="39.0719334" lon="16.2854754"><ele>580.0</ele><time>2026-05-04T20:08:30.888Z</time></trkpt><trkpt lat="39.0719546" lon="16.2853791"><ele>580.0</ele><time>2026-05-04T20:08:35.887Z</time></trkpt><trkpt lat="39.0719779" lon="16.285285"><ele>580.0</ele><time>2026-05-04T20:08:40.842Z</time></trkpt><trkpt lat="39.0720121" lon="16.2852001"><ele>580.0</ele><time>2026-05-04T20:08:45.887Z</time></trkpt><trkpt lat="39.0720607" lon="16.2851314"><ele>580.0</ele><time>2026-05-04T20:08:50.888Z</time></trkpt><trkpt lat="39.0721031" lon="16.2850705"><ele>580.0</ele><time>2026-05-04T20:08:54.886Z</time></trkpt><trkpt lat="39.0721389" lon="16.2850016"><ele>580.0</ele><time>2026-05-04T20:08:58.794Z</time></trkpt><trkpt lat="39.0721984" lon="16.2849543"><ele>580.0</ele><time>2026-05-04T20:09:02.888Z</time></trkpt><trkpt lat="39.0722738" lon="16.2849428"><ele>580.0</ele><time>2026-05-04T20:09:05.888Z</time></trkpt><trkpt lat="39.0723525" lon="16.2849684"><ele>580.0</ele><time>2026-05-04T20:09:08.888Z</time></trkpt><trkpt lat="39.072425" lon="16.2850216"><ele>580.0</ele><time>2026-05-04T20:09:11.898Z</time></trkpt><trkpt lat="39.0724805" lon="16.2851087"><ele>580.0</ele><time>2026-05-04T20:09:14.888Z</time></trkpt><trkpt lat="39.072523" lon="16.2852011"><ele>580.0</ele><time>2026-05-04T20:09:17.887Z</time></trkpt><trkpt lat="39.0725666" lon="16.2852894"><ele>580.0</ele><time>2026-05-04T20:09:20.914Z</time></trkpt><trkpt lat="39.0726058" lon="16.2853758"><ele>581.2857142857143</ele><time>2026-05-04T20:09:23.878Z</time></trkpt><trkpt lat="39.0726478" lon="16.285452"><ele>582.5714285714287</ele><time>2026-05-04T20:09:26.838Z</time></trkpt><trkpt lat="39.0726893" lon="16.285538"><ele>583.8571428571429</ele><time>2026-05-04T20:09:30.79Z</time></trkpt><trkpt lat="39.0727125" lon="16.2856164"><ele>585.1428571428571</ele><time>2026-05-04T20:09:33.887Z</time></trkpt><trkpt lat="39.0727397" lon="16.2856967"><ele>586.4285714285713</ele><time>2026-05-04T20:09:36.887Z</time></trkpt><trkpt lat="39.0727654" lon="16.285781"><ele>587.7142857142857</ele><time>2026-05-04T20:09:39.887Z</time></trkpt><trkpt lat="39.0728029" lon="16.2858651"><ele>589.0</ele><time>2026-05-04T20:09:43.888Z</time></trkpt><trkpt lat="39.0728097" lon="16.2859586"><ele>590.7142857142857</ele><time>2026-05-04T20:09:49.888Z</time></trkpt><trkpt lat="39.0728138" lon="16.2860487"><ele>592.4285714285713</ele><time>2026-05-04T20:09:55.887Z</time></trkpt><trkpt lat="39.0728833" lon="16.2861002"><ele>594.1428571428571</ele><time>2026-05-04T20:10:00.887Z</time></trkpt><trkpt lat="39.0729471" lon="16.2860933"><ele>595.8571428571429</ele><time>2026-05-04T20:10:03.887Z</time></trkpt><trkpt lat="39.0730242" lon="16.2860664"><ele>597.5714285714287</ele><time>2026-05-04T20:10:07.887Z</time></trkpt><trkpt lat="39.0730774" lon="16.2860086"><ele>599.2857142857142</ele><time>2026-05-04T20:10:11.887Z</time></trkpt><trkpt lat="39.0731178" lon="16.2859398"><ele>601.0</ele><time>2026-05-04T20:10:15.886Z</time></trkpt><trkpt lat="39.0731519" lon="16.285871"><ele>601.0</ele><time>2026-05-04T20:10:19.887Z</time></trkpt><trkpt lat="39.0731907" lon="16.2858055"><ele>601.0</ele><time>2026-05-04T20:10:23.995Z</time></trkpt><trkpt lat="39.073239" lon="16.2857355"><ele>601.0</ele><time>2026-05-04T20:10:28.887Z</time></trkpt><trkpt lat="39.0732735" lon="16.2856478"><ele>601.0</ele><time>2026-05-04T20:10:33.886Z</time></trkpt><trkpt lat="39.0733246" lon="16.2855794"><ele>601.0</ele><time>2026-05-04T20:10:38.888Z</time></trkpt><trkpt lat="39.0733709" lon="16.2855207"><ele>601.0</ele><time>2026-05-04T20:10:42.978Z</time></trkpt><trkpt lat="39.0734045" lon="16.285437"><ele>601.0</ele><time>2026-05-04T20:10:47.835Z</time></trkpt><trkpt lat="39.0734213" lon="16.2853391"><ele>599.2857142857142</ele><time>2026-05-04T20:10:52.922Z</time></trkpt><trkpt lat="39.0734304" lon="16.2852422"><ele>597.5714285714287</ele><time>2026-05-04T20:10:57.887Z</time></trkpt><trkpt lat="39.0734324" lon="16.2851464"><ele>595.8571428571429</ele><time>2026-05-04T20:11:02.886Z</time></trkpt><trkpt lat="39.0734592" lon="16.2850573"><ele>594.1428571428571</ele><time>2026-05-04T20:11:07.888Z</time></trkpt><trkpt lat="39.0734941" lon="16.2849708"><ele>592.4285714285713</ele><time>2026-05-04T20:11:12.811Z</time></trkpt><trkpt lat="39.0735301" lon="16.2849042"><ele>590.7142857142857</ele><time>2026-05-04T20:11:16.897Z</time></trkpt><trkpt lat="39.0735799" lon="16.2848303"><ele>589.0</ele><time>2026-05-04T20:11:21.887Z</time></trkpt><trkpt lat="39.0736362" lon="16.2847625"><ele>585.5714285714286</ele><time>2026-05-04T20:11:26.887Z</time></trkpt><trkpt lat="39.0736965" lon="16.2847034"><ele>582.1428571428571</ele><time>2026-05-04T20:11:31.888Z</time></trkpt><trkpt lat="39.0737631" lon="16.2846527"><ele>578.7142857142857</ele><time>2026-05-04T20:11:36.892Z</time></trkpt><trkpt lat="39.0738245" lon="16.284597"><ele>575.2857142857142</ele><time>2026-05-04T20:11:41.892Z</time></trkpt><trkpt lat="39.0738849" lon="16.2845406"><ele>571.8571428571429</ele><time>2026-05-04T20:11:46.891Z</time></trkpt><trkpt lat="39.0739483" lon="16.2845052"><ele>568.4285714285713</ele><time>2026-05-04T20:11:51.887Z</time></trkpt><trkpt lat="39.0740077" lon="16.2844516"><ele>565.0</ele><time>2026-05-04T20:11:56.887Z</time></trkpt><trkpt lat="39.0740741" lon="16.284408"><ele>569.2857142857142</ele><time>2026-05-04T20:12:01.888Z</time></trkpt><trkpt lat="39.0741375" lon="16.2843612"><ele>573.5714285714286</ele><time>2026-05-04T20:12:06.888Z</time></trkpt><trkpt lat="39.0741996" lon="16.2843076"><ele>577.8571428571429</ele><time>2026-05-04T20:12:11.887Z</time></trkpt><trkpt lat="39.0742698" lon="16.2842676"><ele>582.1428571428571</ele><time>2026-05-04T20:12:16.858Z</time></trkpt><trkpt lat="39.0743381" lon="16.2842342"><ele>586.4285714285714</ele><time>2026-05-04T20:12:21.887Z</time></trkpt><trkpt lat="39.074408" lon="16.284216"><ele>590.7142857142857</ele><time>2026-05-04T20:12:26.888Z</time></trkpt><trkpt lat="39.0744791" lon="16.2841917"><ele>595.0</ele><time>2026-05-04T20:12:31.892Z</time></trkpt><trkpt lat="39.0745476" lon="16.2841762"><ele>595.0</ele><time>2026-05-04T20:12:36.886Z</time></trkpt><trkpt lat="39.0744918" lon="16.2841378"><ele>595.0</ele><time>2026-05-04T20:12:42.887Z</time></trkpt><trkpt lat="39.0744211" lon="16.2841506"><ele>595.0</ele><time>2026-05-04T20:12:45.887Z</time></trkpt><trkpt lat="39.0743452" lon="16.2841654"><ele>595.0</ele><time>2026-05-04T20:12:48.888Z</time></trkpt><trkpt lat="39.0742743" lon="16.2842036"><ele>595.0</ele><time>2026-05-04T20:12:51.887Z</time></trkpt><trkpt lat="39.074212" lon="16.2842599"><ele>595.0</ele><time>2026-05-04T20:12:54.918Z</time></trkpt><trkpt lat="39.0741599" lon="16.2843125"><ele>595.0</ele><time>2026-05-04T20:12:57.886Z</time></trkpt><trkpt lat="39.0741123" lon="16.2843707"><ele>590.7142857142857</ele><time>2026-05-04T20:13:00.887Z</time></trkpt><trkpt lat="39.0740689" lon="16.2844309"><ele>586.4285714285714</ele><time>2026-05-04T20:13:03.838Z</time></trkpt><trkpt lat="39.0740037" lon="16.2844811"><ele>582.1428571428571</ele><time>2026-05-04T20:13:06.887Z</time></trkpt><trkpt lat="39.0739381" lon="16.2845148"><ele>577.8571428571429</ele><time>2026-05-04T20:13:09.891Z</time></trkpt><trkpt lat="39.073867" lon="16.2845417"><ele>573.5714285714286</ele><time>2026-05-04T20:13:12.888Z</time></trkpt><trkpt lat="39.0737994" lon="16.28458"><ele>569.2857142857142</ele><time>2026-05-04T20:13:15.887Z</time></trkpt><trkpt lat="39.0737334" lon="16.284618"><ele>565.0</ele><time>2026-05-04T20:13:18.888Z</time></trkpt><trkpt lat="39.0736772" lon="16.2846729"><ele>565.0</ele><time>2026-05-04T20:13:21.887Z</time></trkpt><trkpt lat="39.0736297" lon="16.2847408"><ele>565.0</ele><time>2026-05-04T20:13:24.532Z</time></trkpt><trkpt lat="39.073587" lon="16.284805"><ele>565.0</ele><time>2026-05-04T20:13:26.888Z</time></trkpt><trkpt lat="39.073543" lon="16.2848889"><ele>565.0</ele><time>2026-05-04T20:13:29.887Z</time></trkpt><trkpt lat="39.0734915" lon="16.2849749"><ele>565.0</ele><time>2026-05-04T20:13:32.887Z</time></trkpt><trkpt lat="39.0734503" lon="16.2850583"><ele>565.0</ele><time>2026-05-04T20:13:35.888Z</time></trkpt><trkpt lat="39.0734139" lon="16.2851416"><ele>569.0</ele><time>2026-05-04T20:13:38.872Z</time></trkpt><trkpt lat="39.0733945" lon="16.2852394"><ele>573.0</ele><time>2026-05-04T20:13:41.899Z</time></trkpt><trkpt lat="39.0733787" lon="16.2853371"><ele>577.0</ele><time>2026-05-04T20:13:44.887Z</time></trkpt><trkpt lat="39.0733538" lon="16.2854299"><ele>581.0</ele><time>2026-05-04T20:13:47.887Z</time></trkpt><trkpt lat="39.0733269" lon="16.2855178"><ele>585.0</ele><time>2026-05-04T20:13:50.887Z</time></trkpt><trkpt lat="39.0732929" lon="16.2856009"><ele>589.0</ele><time>2026-05-04T20:13:53.859Z</time></trkpt><trkpt lat="39.0732367" lon="16.2856945"><ele>591.0</ele><time>2026-05-04T20:13:56.887Z</time></trkpt><trkpt lat="39.0731911" lon="16.2857507"><ele>593.0</ele><time>2026-05-04T20:13:58.887Z</time></trkpt><trkpt lat="39.0731299" lon="16.2858271"><ele>595.0</ele><time>2026-05-04T20:14:01.888Z</time></trkpt><trkpt lat="39.073084" lon="16.2859237"><ele>597.0</ele><time>2026-05-04T20:14:04.857Z</time></trkpt><trkpt lat="39.0730579" lon="16.2860096"><ele>599.0</ele><time>2026-05-04T20:14:07.888Z</time></trkpt><trkpt lat="39.0730275" lon="16.286085"><ele>601.0</ele><time>2026-05-04T20:14:10.874Z</time></trkpt><trkpt lat="39.0729512" lon="16.2861447"><ele>601.0</ele><time>2026-05-04T20:14:13.886Z</time></trkpt><trkpt lat="39.0728724" lon="16.2861298"><ele>601.0</ele><time>2026-05-04T20:14:16.892Z</time></trkpt><trkpt lat="39.0728335" lon="16.2860349"><ele>601.0</ele><time>2026-05-04T20:14:19.888Z</time></trkpt><trkpt lat="39.0728239" lon="16.2859445"><ele>601.0</ele><time>2026-05-04T20:14:21.887Z</time></trkpt><trkpt lat="39.0728263" lon="16.2858481"><ele>601.0</ele><time>2026-05-04T20:14:23.886Z</time></trkpt><trkpt lat="39.0728272" lon="16.2857505"><ele>601.0</ele><time>2026-05-04T20:14:25.802Z</time></trkpt><trkpt lat="39.0728401" lon="16.2856513"><ele>599.0</ele><time>2026-05-04T20:14:27.891Z</time></trkpt><trkpt lat="39.0728495" lon="16.28556"><ele>597.0</ele><time>2026-05-04T20:14:29.887Z</time></trkpt><trkpt lat="39.0728492" lon="16.2854776"><ele>595.0</ele><time>2026-05-04T20:14:31.899Z</time></trkpt><trkpt lat="39.0728263" lon="16.2853689"><ele>593.0</ele><time>2026-05-04T20:14:34.888Z</time></trkpt><trkpt lat="39.0728032" lon="16.2852548"><ele>591.0</ele><time>2026-05-04T20:14:37.887Z</time></trkpt><trkpt lat="39.0727832" lon="16.2851772"><ele>589.0</ele><time>2026-05-04T20:14:39.887Z</time></trkpt><trkpt lat="39.0727616" lon="16.2850656"><ele>589.0</ele><time>2026-05-04T20:14:42.859Z</time></trkpt><trkpt lat="39.0727431" lon="16.2849591"><ele>589.0</ele><time>2026-05-04T20:14:45.887Z</time></trkpt><trkpt lat="39.0727243" lon="16.2848469"><ele>589.0</ele><time>2026-05-04T20:14:48.887Z</time></trkpt><trkpt lat="39.0727118" lon="16.2847646"><ele>589.0</ele><time>2026-05-04T20:14:50.877Z</time></trkpt><trkpt lat="39.0726995" lon="16.2846791"><ele>589.0</ele><time>2026-05-04T20:14:52.974Z</time></trkpt><trkpt lat="39.0726723" lon="16.2845698"><ele>589.0</ele><time>2026-05-04T20:14:55.818Z</time></trkpt><trkpt lat="39.0726385" lon="16.2844693"><ele>586.1666666666667</ele><time>2026-05-04T20:14:58.887Z</time></trkpt><trkpt lat="39.0725968" lon="16.2843731"><ele>583.3333333333334</ele><time>2026-05-04T20:15:01.972Z</time></trkpt><trkpt lat="39.0725365" lon="16.2843137"><ele>580.5</ele><time>2026-05-04T20:15:05.887Z</time></trkpt><trkpt lat="39.0724969" lon="16.2842387"><ele>577.6666666666666</ele><time>2026-05-04T20:15:08.874Z</time></trkpt><trkpt lat="39.0724536" lon="16.2841481"><ele>574.8333333333333</ele><time>2026-05-04T20:15:11.886Z</time></trkpt><trkpt lat="39.072412" lon="16.2840463"><ele>572.0</ele><time>2026-05-04T20:15:14.99Z</time></trkpt><trkpt lat="39.0723867" lon="16.2839502"><ele>570.0</ele><time>2026-05-04T20:15:17.888Z</time></trkpt><trkpt lat="39.0723405" lon="16.2838483"><ele>568.0</ele><time>2026-05-04T20:15:20.876Z</time></trkpt><trkpt lat="39.0722561" lon="16.2838114"><ele>566.0</ele><time>2026-05-04T20:15:22.887Z</time></trkpt><trkpt lat="39.0721905" lon="16.2837935"><ele>564.0</ele><time>2026-05-04T20:15:24.887Z</time></trkpt><trkpt lat="39.0721181" lon="16.2837949"><ele>562.0</ele><time>2026-05-04T20:15:28.887Z</time></trkpt><trkpt lat="39.0720604" lon="16.2838474"><ele>560.0</ele><time>2026-05-04T20:15:33.003Z</time></trkpt><trkpt lat="39.0720146" lon="16.2839103"><ele>561.7142857142857</ele><time>2026-05-04T20:15:36.893Z</time></trkpt><trkpt lat="39.0719637" lon="16.2839661"><ele>563.4285714285714</ele><time>2026-05-04T20:15:40.838Z</time></trkpt><trkpt lat="39.0719047" lon="16.2840165"><ele>565.1428571428571</ele><time>2026-05-04T20:15:44.887Z</time></trkpt><trkpt lat="39.0718452" lon="16.2840691"><ele>566.8571428571429</ele><time>2026-05-04T20:15:48.951Z</time></trkpt><trkpt lat="39.0717937" lon="16.2841252"><ele>568.5714285714286</ele><time>2026-05-04T20:15:52.887Z</time></trkpt><trkpt lat="39.0717541" lon="16.2841957"><ele>570.2857142857142</ele><time>2026-05-04T20:15:57.887Z</time></trkpt><trkpt lat="39.0716966" lon="16.2842624"><ele>572.0</ele><time>2026-05-04T20:16:02.887Z</time></trkpt><trkpt lat="39.0716516" lon="16.2843268"><ele>571.9999999999999</ele><time>2026-05-04T20:16:07.887Z</time></trkpt><trkpt lat="39.0716293" lon="16.2844208"><ele>572.0</ele><time>2026-05-04T20:16:12.802Z</time></trkpt><trkpt lat="39.0715998" lon="16.2844951"><ele>572.0</ele><time>2026-05-04T20:16:16.92Z</time></trkpt><trkpt lat="39.0715572" lon="16.2845654"><ele>572.0</ele><time>2026-05-04T20:16:22.26Z</time></trkpt><trkpt lat="39.071522" lon="16.2846537"><ele>572.0</ele><time>2026-05-04T20:16:26.896Z</time></trkpt><trkpt lat="39.0714981" lon="16.2847302"><ele>571.9999999999999</ele><time>2026-05-04T20:16:30.887Z</time></trkpt><trkpt lat="39.0714675" lon="16.2848236"><ele>572.0</ele><time>2026-05-04T20:16:35.894Z</time></trkpt><trkpt lat="39.0714465" lon="16.2849164"><ele>568.5714285714286</ele><time>2026-05-04T20:16:41.579Z</time></trkpt><trkpt lat="39.0714242" lon="16.2849941"><ele>565.1428571428571</ele><time>2026-05-04T20:16:45.487Z</time></trkpt><trkpt lat="39.071401" lon="16.2850915"><ele>561.7142857142858</ele><time>2026-05-04T20:16:49.968Z</time></trkpt><trkpt lat="39.0713835" lon="16.2851726"><ele>558.2857142857142</ele><time>2026-05-04T20:16:53.834Z</time></trkpt><trkpt lat="39.0713591" lon="16.2852596"><ele>554.8571428571429</ele><time>2026-05-04T20:16:57.985Z</time></trkpt><trkpt lat="39.0713667" lon="16.2853532"><ele>551.4285714285714</ele><time>2026-05-04T20:17:00.813Z</time></trkpt><trkpt lat="39.0713472" lon="16.2854439"><ele>548.0</ele><time>2026-05-04T20:17:05.176Z</time></trkpt><trkpt lat="39.0713084" lon="16.2855251"><ele>551.0000000000001</ele><time>2026-05-04T20:17:09.394Z</time></trkpt><trkpt lat="39.0712552" lon="16.2856004"><ele>554.0</ele><time>2026-05-04T20:17:14.096Z</time></trkpt><trkpt lat="39.0711892" lon="16.2856449"><ele>557.0</ele><time>2026-05-04T20:17:18.296Z</time></trkpt><trkpt lat="39.0711293" lon="16.2856726"><ele>560.0</ele><time>2026-05-04T20:17:22.018Z</time></trkpt><trkpt lat="39.0710545" lon="16.2857041"><ele>563.0</ele><time>2026-05-04T20:17:26.894Z</time></trkpt><trkpt lat="39.0709869" lon="16.2857345"><ele>566.0000000000001</ele><time>2026-05-04T20:17:31.75Z</time></trkpt><trkpt lat="39.0709144" lon="16.2857721"><ele>569.0</ele><time>2026-05-04T20:17:36.616Z</time></trkpt><trkpt lat="39.0708436" lon="16.2858118"><ele>563.4285714285714</ele><time>2026-05-04T20:17:41.538Z</time></trkpt><trkpt lat="39.0707718" lon="16.2858467"><ele>557.8571428571429</ele><time>2026-05-04T20:17:46.992Z</time></trkpt><trkpt lat="39.0707038" lon="16.2858717"><ele>552.2857142857142</ele><time>2026-05-04T20:17:51.832Z</time></trkpt><trkpt lat="39.0706569" lon="16.2859296"><ele>546.7142857142858</ele><time>2026-05-04T20:17:55.718Z</time></trkpt><trkpt lat="39.070613" lon="16.2860078"><ele>541.1428571428571</ele><time>2026-05-04T20:18:00.887Z</time></trkpt><trkpt lat="39.0705946" lon="16.2860872"><ele>535.5714285714286</ele><time>2026-05-04T20:18:04.903Z</time></trkpt><trkpt lat="39.0705834" lon="16.2861706"><ele>530.0</ele><time>2026-05-04T20:18:08.886Z</time></trkpt><trkpt lat="39.0705739" lon="16.2862529"><ele>529.9999999999999</ele><time>2026-05-04T20:18:12.857Z</time></trkpt><trkpt lat="39.0705729" lon="16.2863348"><ele>530.0</ele><time>2026-05-04T20:18:16.853Z</time></trkpt><trkpt lat="39.070567" lon="16.2864329"><ele>530.0</ele><time>2026-05-04T20:18:21.887Z</time></trkpt><trkpt lat="39.0705672" lon="16.2865146"><ele>530.0</ele><time>2026-05-04T20:18:25.888Z</time></trkpt><trkpt lat="39.0705634" lon="16.2865995"><ele>530.0</ele><time>2026-05-04T20:18:30.886Z</time></trkpt><trkpt lat="39.0705493" lon="16.2866855"><ele>529.9999999999999</ele><time>2026-05-04T20:18:35.888Z</time></trkpt><trkpt lat="39.0705351" lon="16.2867775"><ele>530.0</ele><time>2026-05-04T20:18:40.887Z</time></trkpt><trkpt lat="39.0705295" lon="16.2868737"><ele>532.1428571428571</ele><time>2026-05-04T20:18:45.887Z</time></trkpt><trkpt lat="39.07053" lon="16.2869735"><ele>534.2857142857142</ele><time>2026-05-04T20:18:50.898Z</time></trkpt><trkpt lat="39.070525" lon="16.2870565"><ele>536.4285714285714</ele><time>2026-05-04T20:18:54.888Z</time></trkpt><trkpt lat="39.0705214" lon="16.2871555"><ele>538.5714285714286</ele><time>2026-05-04T20:18:59.888Z</time></trkpt><trkpt lat="39.0705183" lon="16.2872561"><ele>540.7142857142858</ele><time>2026-05-04T20:19:04.887Z</time></trkpt><trkpt lat="39.0705081" lon="16.2873544"><ele>542.8571428571429</ele><time>2026-05-04T20:19:09.888Z</time></trkpt><trkpt lat="39.0704953" lon="16.2874375"><ele>545.0</ele><time>2026-05-04T20:19:13.888Z</time></trkpt><trkpt lat="39.0704816" lon="16.2875343"><ele>546.7142857142858</ele><time>2026-05-04T20:19:18.887Z</time></trkpt><trkpt lat="39.0704847" lon="16.2876306"><ele>548.4285714285714</ele><time>2026-05-04T20:19:23.887Z</time></trkpt><trkpt lat="39.0704874" lon="16.2877252"><ele>550.1428571428571</ele><time>2026-05-04T20:19:28.887Z</time></trkpt><trkpt lat="39.0705146" lon="16.2878169"><ele>551.8571428571429</ele><time>2026-05-04T20:19:33.887Z</time></trkpt><trkpt lat="39.0705481" lon="16.2879025"><ele>553.5714285714286</ele><time>2026-05-04T20:19:38.887Z</time></trkpt><trkpt lat="39.0705959" lon="16.2879566"><ele>555.2857142857143</ele><time>2026-05-04T20:19:43.888Z</time></trkpt><trkpt lat="39.0706523" lon="16.2880153"><ele>557.0</ele><time>2026-05-04T20:19:48.887Z</time></trkpt><trkpt lat="39.070701" lon="16.2880932"><ele>556.7142857142858</ele><time>2026-05-04T20:19:53.888Z</time></trkpt><trkpt lat="39.0707435" lon="16.2881737"><ele>556.4285714285714</ele><time>2026-05-04T20:19:58.887Z</time></trkpt><trkpt lat="39.0707917" lon="16.288248"><ele>556.1428571428571</ele><time>2026-05-04T20:20:03.888Z</time></trkpt><trkpt lat="39.070843" lon="16.2883172"><ele>555.8571428571429</ele><time>2026-05-04T20:20:08.886Z</time></trkpt><trkpt lat="39.0708941" lon="16.2883846"><ele>555.5714285714286</ele><time>2026-05-04T20:20:13.888Z</time></trkpt><trkpt lat="39.0709045" lon="16.2884776"><ele>555.2857142857143</ele><time>2026-05-04T20:20:18.887Z</time></trkpt><trkpt lat="39.0708561" lon="16.2885531"><ele>555.0</ele><time>2026-05-04T20:20:24.737Z</time></trkpt><trkpt lat="39.0708324" lon="16.2886385"><ele>555.0000000000001</ele><time>2026-05-04T20:20:28.886Z</time></trkpt><trkpt lat="39.0707562" lon="16.2886448"><ele>555.0</ele><time>2026-05-04T20:20:32.887Z</time></trkpt><trkpt lat="39.0706911" lon="16.2886299"><ele>555.0</ele><time>2026-05-04T20:20:36.818Z</time></trkpt><trkpt lat="39.0706206" lon="16.2886166"><ele>555.0</ele><time>2026-05-04T20:20:40.886Z</time></trkpt><trkpt lat="39.0705533" lon="16.2886345"><ele>555.0</ele><time>2026-05-04T20:20:44.888Z</time></trkpt><trkpt lat="39.0704899" lon="16.2886437"><ele>555.0000000000001</ele><time>2026-05-04T20:20:48.887Z</time></trkpt><trkpt lat="39.0704302" lon="16.2886699"><ele>555.0</ele><time>2026-05-04T20:20:52.888Z</time></trkpt><trkpt lat="39.0703578" lon="16.2886698"><ele>555.0000000000001</ele><time>2026-05-04T20:20:56.887Z</time></trkpt><trkpt lat="39.0703006" lon="16.2887065"><ele>555.0</ele><time>2026-05-04T20:21:00.878Z</time></trkpt><trkpt lat="39.0702465" lon="16.2887666"><ele>555.0</ele><time>2026-05-04T20:21:05.714Z</time></trkpt><trkpt lat="39.0702021" lon="16.2888266"><ele>555.0</ele><time>2026-05-04T20:21:09.551Z</time></trkpt><trkpt lat="39.0701607" lon="16.2888901"><ele>555.0</ele><time>2026-05-04T20:21:13.418Z</time></trkpt><trkpt lat="39.0701272" lon="16.2889617"><ele>555.0000000000001</ele><time>2026-05-04T20:21:17.254Z</time></trkpt><trkpt lat="39.0701006" lon="16.2890374"><ele>555.0</ele><time>2026-05-04T20:21:21.111Z</time></trkpt><trkpt lat="39.0700755" lon="16.2891336"><ele>553.5714285714287</ele><time>2026-05-04T20:21:25.891Z</time></trkpt><trkpt lat="39.0700407" lon="16.2892213"><ele>552.1428571428571</ele><time>2026-05-04T20:21:30.653Z</time></trkpt><trkpt lat="39.0699721" lon="16.2892589"><ele>550.7142857142858</ele><time>2026-05-04T20:21:35.413Z</time></trkpt><trkpt lat="39.0698977" lon="16.2892481"><ele>549.2857142857143</ele><time>2026-05-04T20:21:40.232Z</time></trkpt><trkpt lat="39.0698264" lon="16.2892549"><ele>547.8571428571429</ele><time>2026-05-04T20:21:45.049Z</time></trkpt><trkpt lat="39.0697661" lon="16.2892841"><ele>546.4285714285714</ele><time>2026-05-04T20:21:49.411Z</time></trkpt><trkpt lat="39.069701" lon="16.2893304"><ele>545.0</ele><time>2026-05-04T20:21:54.296Z</time></trkpt><trkpt lat="39.0696415" lon="16.2893956"><ele>545.0</ele><time>2026-05-04T20:21:59.17Z</time></trkpt><trkpt lat="39.0695945" lon="16.2894554"><ele>545.0</ele><time>2026-05-04T20:22:03.095Z</time></trkpt><trkpt lat="39.06955" lon="16.2895371"><ele>545.0</ele><time>2026-05-04T20:22:07.888Z</time></trkpt><trkpt lat="39.0695245" lon="16.2896321"><ele>545.0</ele><time>2026-05-04T20:22:12.836Z</time></trkpt><trkpt lat="39.0695013" lon="16.289723"><ele>545.0</ele><time>2026-05-04T20:22:17.729Z</time></trkpt><trkpt lat="39.0694753" lon="16.2898157"><ele>545.0</ele><time>2026-05-04T20:22:22.887Z</time></trkpt><trkpt lat="39.0694562" lon="16.2899095"><ele>545.0</ele><time>2026-05-04T20:22:27.887Z</time></trkpt><trkpt lat="39.0694197" lon="16.2899923"><ele>543.2857142857143</ele><time>2026-05-04T20:22:32.851Z</time></trkpt><trkpt lat="39.0693661" lon="16.2900602"><ele>541.5714285714287</ele><time>2026-05-04T20:22:37.774Z</time></trkpt><trkpt lat="39.0693043" lon="16.2901111"><ele>539.8571428571429</ele><time>2026-05-04T20:22:42.61Z</time></trkpt><trkpt lat="39.0692442" lon="16.2901691"><ele>538.1428571428571</ele><time>2026-05-04T20:22:47.478Z</time></trkpt><trkpt lat="39.0691921" lon="16.290241"><ele>536.4285714285713</ele><time>2026-05-04T20:22:52.437Z</time></trkpt><trkpt lat="39.0691406" lon="16.2903119"><ele>534.7142857142857</ele><time>2026-05-04T20:22:57.351Z</time></trkpt><trkpt lat="39.0690927" lon="16.2903839"><ele>533.0</ele><time>2026-05-04T20:23:02.199Z</time></trkpt><trkpt lat="39.069034" lon="16.2904482"><ele>533.0</ele><time>2026-05-04T20:23:07.073Z</time></trkpt><trkpt lat="39.0689757" lon="16.290512"><ele>533.0</ele><time>2026-05-04T20:23:11.888Z</time></trkpt><trkpt lat="39.0689296" lon="16.2905677"><ele>533.0</ele><time>2026-05-04T20:23:15.888Z</time></trkpt><trkpt lat="39.0688791" lon="16.2906437"><ele>533.0</ele><time>2026-05-04T20:23:20.89Z</time></trkpt><trkpt lat="39.0688415" lon="16.2907124"><ele>533.0</ele><time>2026-05-04T20:23:24.794Z</time></trkpt><trkpt lat="39.0688061" lon="16.29078"><ele>533.0</ele><time>2026-05-04T20:23:28.699Z</time></trkpt><trkpt lat="39.0687618" lon="16.2908554"><ele>533.0</ele><time>2026-05-04T20:23:33.679Z</time></trkpt><trkpt lat="39.0687399" lon="16.2909454"><ele>535.7142857142857</ele><time>2026-05-04T20:23:38.696Z</time></trkpt><trkpt lat="39.0687188" lon="16.2910367"><ele>538.4285714285713</ele><time>2026-05-04T20:23:43.676Z</time></trkpt><trkpt lat="39.0686941" lon="16.2911116"><ele>541.1428571428571</ele><time>2026-05-04T20:23:47.79Z</time></trkpt><trkpt lat="39.0686687" lon="16.2911859"><ele>543.8571428571429</ele><time>2026-05-04T20:23:51.731Z</time></trkpt><trkpt lat="39.0686388" lon="16.2912769"><ele>546.5714285714287</ele><time>2026-05-04T20:23:56.711Z</time></trkpt><trkpt lat="39.0686009" lon="16.291362"><ele>549.2857142857143</ele><time>2026-05-04T20:24:01.777Z</time></trkpt><trkpt lat="39.0685731" lon="16.2914506"><ele>552.0</ele><time>2026-05-04T20:24:06.777Z</time></trkpt><trkpt lat="39.068552" lon="16.2915299"><ele>555.8571428571429</ele><time>2026-05-04T20:24:10.832Z</time></trkpt><trkpt lat="39.0685273" lon="16.2916221"><ele>559.7142857142858</ele><time>2026-05-04T20:24:15.813Z</time></trkpt><trkpt lat="39.0684911" lon="16.291708"><ele>563.5714285714286</ele><time>2026-05-04T20:24:20.812Z</time></trkpt><trkpt lat="39.0684548" lon="16.2917906"><ele>567.4285714285714</ele><time>2026-05-04T20:24:25.716Z</time></trkpt><trkpt lat="39.0684228" lon="16.2918616"><ele>571.2857142857142</ele><time>2026-05-04T20:24:29.697Z</time></trkpt><trkpt lat="39.0683928" lon="16.2919543"><ele>575.1428571428571</ele><time>2026-05-04T20:24:34.59Z</time></trkpt><trkpt lat="39.0683584" lon="16.2920385"><ele>579.0</ele><time>2026-05-04T20:24:39.57Z</time></trkpt><trkpt lat="39.0683402" lon="16.2921245"><ele>578.9999999999999</ele><time>2026-05-04T20:24:44.476Z</time></trkpt><trkpt lat="39.0683215" lon="16.2922034"><ele>579.0</ele><time>2026-05-04T20:24:48.911Z</time></trkpt><trkpt lat="39.0683099" lon="16.2922972"><ele>579.0</ele><time>2026-05-04T20:24:53.778Z</time></trkpt><trkpt lat="39.0682809" lon="16.2923881"><ele>579.0</ele><time>2026-05-04T20:24:58.759Z</time></trkpt><trkpt lat="39.0682417" lon="16.2924745"><ele>579.0</ele><time>2026-05-04T20:25:03.778Z</time></trkpt><trkpt lat="39.0682101" lon="16.2925706"><ele>578.9999999999999</ele><time>2026-05-04T20:25:08.976Z</time></trkpt><trkpt lat="39.0681845" lon="16.2926627"><ele>579.0</ele><time>2026-05-04T20:25:13.981Z</time></trkpt><trkpt lat="39.068165" lon="16.2927532"><ele>578.4285714285713</ele><time>2026-05-04T20:25:18.886Z</time></trkpt><trkpt lat="39.0681357" lon="16.2928461"><ele>577.8571428571429</ele><time>2026-05-04T20:25:23.859Z</time></trkpt><trkpt lat="39.0681099" lon="16.2929382"><ele>577.2857142857142</ele><time>2026-05-04T20:25:28.888Z</time></trkpt><trkpt lat="39.0680944" lon="16.2930178"><ele>576.7142857142857</ele><time>2026-05-04T20:25:32.888Z</time></trkpt><trkpt lat="39.0680622" lon="16.2931073"><ele>576.1428571428571</ele><time>2026-05-04T20:25:37.855Z</time></trkpt><trkpt lat="39.0680353" lon="16.2932011"><ele>575.5714285714286</ele><time>2026-05-04T20:25:42.654Z</time></trkpt><trkpt lat="39.0680169" lon="16.2932831"><ele>575.0</ele><time>2026-05-04T20:25:46.887Z</time></trkpt><trkpt lat="39.0679902" lon="16.2933738"><ele>575.0</ele><time>2026-05-04T20:25:51.888Z</time></trkpt><trkpt lat="39.0679611" lon="16.2934644"><ele>575.0</ele><time>2026-05-04T20:25:56.833Z</time></trkpt><trkpt lat="39.0679315" lon="16.2935369"><ele>575.0</ele><time>2026-05-04T20:26:00.832Z</time></trkpt><trkpt lat="39.067915" lon="16.2936381"><ele>575.0</ele><time>2026-05-04T20:26:04.888Z</time></trkpt><trkpt lat="39.0678855" lon="16.2937115"><ele>575.0</ele><time>2026-05-04T20:26:08.887Z</time></trkpt><trkpt lat="39.0678798" lon="16.2936201"><ele>575.0</ele><time>2026-05-04T20:26:13.857Z</time></trkpt><trkpt lat="39.0678962" lon="16.2935353"><ele>575.0</ele><time>2026-05-04T20:26:16.771Z</time></trkpt><trkpt lat="39.0679414" lon="16.2934497"><ele>575.0</ele><time>2026-05-04T20:26:20.532Z</time></trkpt><trkpt lat="39.0679841" lon="16.293366"><ele>575.0</ele><time>2026-05-04T20:26:24.779Z</time></trkpt><trkpt lat="39.0680161" lon="16.2932839"><ele>575.0</ele><time>2026-05-04T20:26:28.886Z</time></trkpt><trkpt lat="39.068042" lon="16.2932045"><ele>575.0</ele><time>2026-05-04T20:26:32.835Z</time></trkpt><trkpt lat="39.0680716" lon="16.2931249"><ele>575.0</ele><time>2026-05-04T20:26:36.888Z</time></trkpt><trkpt lat="39.0681036" lon="16.2930437"><ele>575.0</ele><time>2026-05-04T20:26:40.992Z</time></trkpt><trkpt lat="39.0681294" lon="16.2929595"><ele>575.0</ele><time>2026-05-04T20:26:45.394Z</time></trkpt><trkpt lat="39.0681681" lon="16.2928608"><ele>572.8333333333333</ele><time>2026-05-04T20:26:48.87Z</time></trkpt><trkpt lat="39.0681956" lon="16.2927633"><ele>570.6666666666666</ele><time>2026-05-04T20:26:51.886Z</time></trkpt><trkpt lat="39.0682204" lon="16.2926744"><ele>568.5</ele><time>2026-05-04T20:26:54.792Z</time></trkpt><trkpt lat="39.0682472" lon="16.2925846"><ele>566.3333333333334</ele><time>2026-05-04T20:26:57.887Z</time></trkpt><trkpt lat="39.0682751" lon="16.2924937"><ele>564.1666666666667</ele><time>2026-05-04T20:27:00.888Z</time></trkpt><trkpt lat="39.0682913" lon="16.2923871"><ele>562.0</ele><time>2026-05-04T20:27:03.99Z</time></trkpt><trkpt lat="39.068308" lon="16.2922585"><ele>564.8333333333334</ele><time>2026-05-04T20:27:07.971Z</time></trkpt><trkpt lat="39.0683402" lon="16.2921833"><ele>567.6666666666667</ele><time>2026-05-04T20:27:10.979Z</time></trkpt><trkpt lat="39.0683754" lon="16.2921084"><ele>570.5</ele><time>2026-05-04T20:27:13.887Z</time></trkpt><trkpt lat="39.0684089" lon="16.2920133"><ele>573.3333333333334</ele><time>2026-05-04T20:27:16.967Z</time></trkpt><trkpt lat="39.0684376" lon="16.2919184"><ele>576.1666666666666</ele><time>2026-05-04T20:27:19.892Z</time></trkpt><trkpt lat="39.0684711" lon="16.2918194"><ele>579.0</ele><time>2026-05-04T20:27:22.887Z</time></trkpt><trkpt lat="39.0685068" lon="16.2917253"><ele>579.0</ele><time>2026-05-04T20:27:25.967Z</time></trkpt><trkpt lat="39.0685372" lon="16.2916364"><ele>579.0</ele><time>2026-05-04T20:27:28.888Z</time></trkpt><trkpt lat="39.0685672" lon="16.2915411"><ele>579.0</ele><time>2026-05-04T20:27:31.834Z</time></trkpt><trkpt lat="39.0685927" lon="16.291466"><ele>579.0</ele><time>2026-05-04T20:27:33.887Z</time></trkpt><trkpt lat="39.0686336" lon="16.2913762"><ele>579.0</ele><time>2026-05-04T20:27:36.795Z</time></trkpt><trkpt lat="39.0686651" lon="16.2913039"><ele>579.0</ele><time>2026-05-04T20:27:38.88Z</time></trkpt><trkpt lat="39.0686952" lon="16.2911951"><ele>574.5</ele><time>2026-05-04T20:27:41.887Z</time></trkpt><trkpt lat="39.0687211" lon="16.2910856"><ele>570.0</ele><time>2026-05-04T20:27:44.887Z</time></trkpt><trkpt lat="39.0687469" lon="16.2909726"><ele>565.5</ele><time>2026-05-04T20:27:47.81Z</time></trkpt><trkpt lat="39.068759" lon="16.2908903"><ele>561.0</ele><time>2026-05-04T20:27:49.887Z</time></trkpt><trkpt lat="39.068788" lon="16.2907893"><ele>556.5</ele><time>2026-05-04T20:27:52.791Z</time></trkpt><trkpt lat="39.0688376" lon="16.2907054"><ele>552.0</ele><time>2026-05-04T20:27:55.887Z</time></trkpt><trkpt lat="39.0688894" lon="16.2906375"><ele>548.8333333333334</ele><time>2026-05-04T20:27:58.886Z</time></trkpt><trkpt lat="39.0689521" lon="16.2905625"><ele>545.6666666666666</ele><time>2026-05-04T20:28:01.887Z</time></trkpt><trkpt lat="39.0690195" lon="16.2904841"><ele>542.5</ele><time>2026-05-04T20:28:04.887Z</time></trkpt><trkpt lat="39.0690843" lon="16.2904203"><ele>539.3333333333333</ele><time>2026-05-04T20:28:07.815Z</time></trkpt><trkpt lat="39.0691436" lon="16.2903458"><ele>536.1666666666666</ele><time>2026-05-04T20:28:10.887Z</time></trkpt><trkpt lat="39.0692042" lon="16.2902627"><ele>533.0</ele><time>2026-05-04T20:28:13.982Z</time></trkpt><trkpt lat="39.0692665" lon="16.2901974"><ele>534.7142857142857</ele><time>2026-05-04T20:28:16.852Z</time></trkpt><trkpt lat="39.069338" lon="16.2901423"><ele>536.4285714285713</ele><time>2026-05-04T20:28:19.888Z</time></trkpt><trkpt lat="39.0693909" lon="16.2900905"><ele>538.1428571428571</ele><time>2026-05-04T20:28:22.814Z</time></trkpt><trkpt lat="39.0694479" lon="16.2900182"><ele>539.8571428571429</ele><time>2026-05-04T20:28:25.991Z</time></trkpt><trkpt lat="39.069487" lon="16.2899315"><ele>541.5714285714287</ele><time>2026-05-04T20:28:29.888Z</time></trkpt><trkpt lat="39.0695194" lon="16.2898412"><ele>543.2857142857143</ele><time>2026-05-04T20:28:34.886Z</time></trkpt><trkpt lat="39.0695505" lon="16.2897691"><ele>545.0</ele><time>2026-05-04T20:28:38.859Z</time></trkpt><trkpt lat="39.069575" lon="16.2896931"><ele>545.0</ele><time>2026-05-04T20:28:42.888Z</time></trkpt><trkpt lat="39.0695889" lon="16.2895948"><ele>545.0</ele><time>2026-05-04T20:28:47.887Z</time></trkpt><trkpt lat="39.0696129" lon="16.2895039"><ele>545.0</ele><time>2026-05-04T20:28:52.731Z</time></trkpt><trkpt lat="39.0696529" lon="16.2894254"><ele>545.0</ele><time>2026-05-04T20:28:57.53Z</time></trkpt><trkpt lat="39.0697124" lon="16.2893886"><ele>545.0</ele><time>2026-05-04T20:29:01.887Z</time></trkpt><trkpt lat="39.0697838" lon="16.289382"><ele>545.0</ele><time>2026-05-04T20:29:05.887Z</time></trkpt><trkpt lat="39.0698605" lon="16.2894031"><ele>545.0</ele><time>2026-05-04T20:29:10.887Z</time></trkpt><trkpt lat="39.0699354" lon="16.2894293"><ele>549.1428571428571</ele><time>2026-05-04T20:29:15.887Z</time></trkpt><trkpt lat="39.0699912" lon="16.2894674"><ele>553.2857142857143</ele><time>2026-05-04T20:29:19.887Z</time></trkpt><trkpt lat="39.0700517" lon="16.2894922"><ele>557.4285714285714</ele><time>2026-05-04T20:29:23.888Z</time></trkpt><trkpt lat="39.0701268" lon="16.2894862"><ele>561.5714285714286</ele><time>2026-05-04T20:29:28.59Z</time></trkpt><trkpt lat="39.0701967" lon="16.2894567"><ele>565.7142857142858</ele><time>2026-05-04T20:29:33.514Z</time></trkpt><trkpt lat="39.0702497" lon="16.2893853"><ele>569.8571428571429</ele><time>2026-05-04T20:29:38.531Z</time></trkpt><trkpt lat="39.0702814" lon="16.2893006"><ele>574.0</ele><time>2026-05-04T20:29:43.731Z</time></trkpt><trkpt lat="39.0703107" lon="16.2892088"><ele>574.0</ele><time>2026-05-04T20:29:48.887Z</time></trkpt><trkpt lat="39.0703579" lon="16.2891393"><ele>574.0</ele><time>2026-05-04T20:29:54.887Z</time></trkpt><trkpt lat="39.0704152" lon="16.2890798"><ele>574.0</ele><time>2026-05-04T20:30:00.887Z</time></trkpt><trkpt lat="39.0704651" lon="16.2890289"><ele>574.0</ele><time>2026-05-04T20:30:05.888Z</time></trkpt><trkpt lat="39.0705299" lon="16.2889921"><ele>574.0</ele><time>2026-05-04T20:30:10.879Z</time></trkpt><trkpt lat="39.0705959" lon="16.2889572"><ele>574.0</ele><time>2026-05-04T20:30:16.887Z</time></trkpt><trkpt lat="39.0706664" lon="16.2889331"><ele>574.0</ele><time>2026-05-04T20:30:21.856Z</time></trkpt><trkpt lat="39.0707354" lon="16.2889215"><ele>574.8571428571429</ele><time>2026-05-04T20:30:26.888Z</time></trkpt><trkpt lat="39.0708081" lon="16.2889258"><ele>575.7142857142858</ele><time>2026-05-04T20:30:31.887Z</time></trkpt><trkpt lat="39.0708793" lon="16.288951"><ele>576.5714285714286</ele><time>2026-05-04T20:30:36.816Z</time></trkpt><trkpt lat="39.0709449" lon="16.2889602"><ele>577.4285714285714</ele><time>2026-05-04T20:30:41.853Z</time></trkpt><trkpt lat="39.0710145" lon="16.2889835"><ele>578.2857142857143</ele><time>2026-05-04T20:30:46.887Z</time></trkpt><trkpt lat="39.0710886" lon="16.2889934"><ele>579.1428571428571</ele><time>2026-05-04T20:30:51.888Z</time></trkpt><trkpt lat="39.0711626" lon="16.2889662"><ele>580.0</ele><time>2026-05-04T20:30:56.754Z</time></trkpt><trkpt lat="39.0712025" lon="16.2888997"><ele>580.0</ele><time>2026-05-04T20:31:00.61Z</time></trkpt><trkpt lat="39.0712288" lon="16.2888235"><ele>580.0</ele><time>2026-05-04T20:31:04.516Z</time></trkpt><trkpt lat="39.0712435" lon="16.2887416"><ele>580.0</ele><time>2026-05-04T20:31:08.352Z</time></trkpt><trkpt lat="39.0712402" lon="16.2886507"><ele>580.0</ele><time>2026-05-04T20:31:13.293Z</time></trkpt><trkpt lat="39.0712304" lon="16.2885534"><ele>580.0</ele><time>2026-05-04T20:31:18.18Z</time></trkpt><trkpt lat="39.0712122" lon="16.2884588"><ele>580.0</ele><time>2026-05-04T20:31:23.158Z</time></trkpt><trkpt lat="39.0711976" lon="16.2883796"><ele>580.0</ele><time>2026-05-04T20:31:27.196Z</time></trkpt><trkpt lat="39.0711776" lon="16.2882842"><ele>580.0</ele><time>2026-05-04T20:31:32.176Z</time></trkpt><trkpt lat="39.0711621" lon="16.2881918"><ele>580.0</ele><time>2026-05-04T20:31:37.051Z</time></trkpt><trkpt lat="39.071138" lon="16.2880996"><ele>580.0</ele><time>2026-05-04T20:31:41.88Z</time></trkpt><trkpt lat="39.0711172" lon="16.2880093"><ele>580.0</ele><time>2026-05-04T20:31:46.698Z</time></trkpt><trkpt lat="39.0711062" lon="16.2879112"><ele>580.0</ele><time>2026-05-04T20:31:51.516Z</time></trkpt><trkpt lat="39.0711007" lon="16.2878302"><ele>580.0</ele><time>2026-05-04T20:31:55.372Z</time></trkpt><trkpt lat="39.0711002" lon="16.2877317"><ele>580.0</ele><time>2026-05-04T20:32:00.133Z</time></trkpt><trkpt lat="39.0711099" lon="16.287641"><ele>579.7142857142858</ele><time>2026-05-04T20:32:04.512Z</time></trkpt><trkpt lat="39.0711281" lon="16.2875521"><ele>579.4285714285714</ele><time>2026-05-04T20:32:09.397Z</time></trkpt><trkpt lat="39.0711518" lon="16.2874648"><ele>579.1428571428571</ele><time>2026-05-04T20:32:14.291Z</time></trkpt><trkpt lat="39.0711748" lon="16.2873885"><ele>578.8571428571429</ele><time>2026-05-04T20:32:18.157Z</time></trkpt><trkpt lat="39.0711938" lon="16.2873096"><ele>578.5714285714286</ele><time>2026-05-04T20:32:22.47Z</time></trkpt><trkpt lat="39.0712126" lon="16.2872238"><ele>578.2857142857143</ele><time>2026-05-04T20:32:26.888Z</time></trkpt><trkpt lat="39.0712207" lon="16.2871344"><ele>578.0</ele><time>2026-05-04T20:32:31.697Z</time></trkpt><trkpt lat="39.0712306" lon="16.2870537"><ele>578.0</ele><time>2026-05-04T20:32:35.888Z</time></trkpt><trkpt lat="39.0712375" lon="16.286967"><ele>578.0</ele><time>2026-05-04T20:32:39.897Z</time></trkpt><trkpt lat="39.0712441" lon="16.2868825"><ele>578.0</ele><time>2026-05-04T20:32:43.887Z</time></trkpt><trkpt lat="39.0712432" lon="16.2867958"><ele>578.0</ele><time>2026-05-04T20:32:47.989Z</time></trkpt><trkpt lat="39.071236" lon="16.2867029"><ele>578.0</ele><time>2026-05-04T20:32:52.887Z</time></trkpt><trkpt lat="39.0712449" lon="16.2866216"><ele>578.0</ele><time>2026-05-04T20:32:56.76Z</time></trkpt><trkpt lat="39.0712533" lon="16.2865362"><ele>578.0</ele><time>2026-05-04T20:33:00.887Z</time></trkpt><trkpt lat="39.0712737" lon="16.2864528"><ele>576.7142857142858</ele><time>2026-05-04T20:33:05.29Z</time></trkpt><trkpt lat="39.0713272" lon="16.2863918"><ele>575.4285714285714</ele><time>2026-05-04T20:33:09.886Z</time></trkpt><trkpt lat="39.0713941" lon="16.286344"><ele>574.1428571428571</ele><time>2026-05-04T20:33:15.886Z</time></trkpt><trkpt lat="39.0714321" lon="16.2862557"><ele>572.8571428571429</ele><time>2026-05-04T20:33:20.888Z</time></trkpt><trkpt lat="39.0714878" lon="16.286209"><ele>571.5714285714286</ele><time>2026-05-04T20:33:24.888Z</time></trkpt><trkpt lat="39.0715454" lon="16.2861704"><ele>570.2857142857143</ele><time>2026-05-04T20:33:28.887Z</time></trkpt><trkpt lat="39.0715836" lon="16.2860898"><ele>569.0</ele><time>2026-05-04T20:33:33.799Z</time></trkpt><trkpt lat="39.0716444" lon="16.2860425"><ele>570.5714285714287</ele><time>2026-05-04T20:33:37.617Z</time></trkpt><trkpt lat="39.0716903" lon="16.2859829"><ele>572.1428571428571</ele><time>2026-05-04T20:33:41.532Z</time></trkpt><trkpt lat="39.07174" lon="16.2859111"><ele>573.7142857142858</ele><time>2026-05-04T20:33:45.982Z</time></trkpt><trkpt lat="39.0717933" lon="16.2858589"><ele>575.2857142857143</ele><time>2026-05-04T20:33:49.854Z</time></trkpt><trkpt lat="39.0718382" lon="16.2858003"><ele>576.8571428571429</ele><time>2026-05-04T20:33:53.671Z</time></trkpt><trkpt lat="39.0718863" lon="16.2857138"><ele>578.4285714285714</ele><time>2026-05-04T20:33:58.888Z</time></trkpt><trkpt lat="39.0719084" lon="16.2856331"><ele>580.0</ele><time>2026-05-04T20:34:02.719Z</time></trkpt><trkpt lat="39.0719293" lon="16.2855478"><ele>580.0</ele><time>2026-05-04T20:34:06.888Z</time></trkpt><trkpt lat="39.0719453" lon="16.285466"><ele>580.0</ele><time>2026-05-04T20:34:10.792Z</time></trkpt><trkpt lat="39.0719482" lon="16.2853668"><ele>580.0</ele><time>2026-05-04T20:34:14.896Z</time></trkpt><trkpt lat="39.0719668" lon="16.2852706"><ele>580.0</ele><time>2026-05-04T20:34:17.976Z</time></trkpt><trkpt lat="39.0719907" lon="16.2851755"><ele>580.0</ele><time>2026-05-04T20:34:20.887Z</time></trkpt><trkpt lat="39.0720374" lon="16.2850902"><ele>580.0</ele><time>2026-05-04T20:34:23.888Z</time></trkpt><trkpt lat="39.0721105" lon="16.2850112"><ele>580.0</ele><time>2026-05-04T20:34:26.981Z</time></trkpt><trkpt lat="39.0721784" lon="16.284946"><ele>580.0</ele><time>2026-05-04T20:34:29.837Z</time></trkpt><trkpt lat="39.072245" lon="16.2848929"><ele>580.0</ele><time>2026-05-04T20:34:32.887Z</time></trkpt><trkpt lat="39.0723193" lon="16.2848719"><ele>580.0</ele><time>2026-05-04T20:34:35.836Z</time></trkpt><trkpt lat="39.0724007" lon="16.2849132"><ele>580.0</ele><time>2026-05-04T20:34:38.886Z</time></trkpt><trkpt lat="39.0724655" lon="16.2850015"><ele>580.0</ele><time>2026-05-04T20:34:41.886Z</time></trkpt><trkpt lat="39.072492" lon="16.2850763"><ele>581.5</ele><time>2026-05-04T20:34:43.968Z</time></trkpt><trkpt lat="39.0725354" lon="16.2851863"><ele>583.0</ele><time>2026-05-04T20:34:47.036Z</time></trkpt><trkpt lat="39.0725822" lon="16.2852726"><ele>584.5</ele><time>2026-05-04T20:34:49.416Z</time></trkpt><trkpt lat="39.0726219" lon="16.2853621"><ele>586.0</ele><time>2026-05-04T20:34:51.887Z</time></trkpt><trkpt lat="39.072649" lon="16.2854396"><ele>587.5</ele><time>2026-05-04T20:34:54.887Z</time></trkpt><trkpt lat="39.0726768" lon="16.2855266"><ele>589.0</ele><time>2026-05-04T20:34:57.982Z</time></trkpt><trkpt lat="39.0727195" lon="16.2855995"><ele>590.7142857142857</ele><time>2026-05-04T20:35:00.888Z</time></trkpt><trkpt lat="39.0727588" lon="16.2856754"><ele>592.4285714285713</ele><time>2026-05-04T20:35:03.887Z</time></trkpt><trkpt lat="39.0727979" lon="16.2857511"><ele>594.1428571428571</ele><time>2026-05-04T20:35:06.887Z</time></trkpt><trkpt lat="39.0728285" lon="16.2858254"><ele>595.8571428571429</ele><time>2026-05-04T20:35:10.887Z</time></trkpt><trkpt lat="39.0728512" lon="16.2859098"><ele>597.5714285714287</ele><time>2026-05-04T20:35:15.888Z</time></trkpt><trkpt lat="39.0728561" lon="16.2860013"><ele>599.2857142857142</ele><time>2026-05-04T20:35:20.888Z</time></trkpt><trkpt lat="39.0728926" lon="16.2860812"><ele>601.0</ele><time>2026-05-04T20:35:26.886Z</time></trkpt><trkpt lat="39.0729628" lon="16.2860989"><ele>601.0</ele><time>2026-05-04T20:35:31.892Z</time></trkpt><trkpt lat="39.073031" lon="16.2860714"><ele>601.0</ele><time>2026-05-04T20:35:35.891Z</time></trkpt><trkpt lat="39.0730824" lon="16.2860219"><ele>601.0</ele><time>2026-05-04T20:35:39.888Z</time></trkpt><trkpt lat="39.0731221" lon="16.2859396"><ele>601.0</ele><time>2026-05-04T20:35:44.852Z</time></trkpt><trkpt lat="39.073158" lon="16.2858576"><ele>601.0</ele><time>2026-05-04T20:35:49.792Z</time></trkpt><trkpt lat="39.0732029" lon="16.2857767"><ele>601.0</ele><time>2026-05-04T20:35:54.715Z</time></trkpt><trkpt lat="39.0732529" lon="16.2857054"><ele>601.0</ele><time>2026-05-04T20:35:59.715Z</time></trkpt><trkpt lat="39.073307" lon="16.2856388"><ele>599.0</ele><time>2026-05-04T20:36:04.713Z</time></trkpt><trkpt lat="39.0733482" lon="16.2855568"><ele>597.0</ele><time>2026-05-04T20:36:09.55Z</time></trkpt><trkpt lat="39.0733742" lon="16.2854755"><ele>595.0</ele><time>2026-05-04T20:36:13.712Z</time></trkpt><trkpt lat="39.0733949" lon="16.2853825"><ele>593.0</ele><time>2026-05-04T20:36:18.739Z</time></trkpt><trkpt lat="39.0734154" lon="16.2852877"><ele>591.0</ele><time>2026-05-04T20:36:23.739Z</time></trkpt><trkpt lat="39.0734358" lon="16.2851939"><ele>589.0</ele><time>2026-05-04T20:36:28.755Z</time></trkpt><trkpt lat="39.0734642" lon="16.2850991"><ele>589.0</ele><time>2026-05-04T20:36:33.755Z</time></trkpt><trkpt lat="39.0735006" lon="16.285013"><ele>589.0</ele><time>2026-05-04T20:36:38.81Z</time></trkpt><trkpt lat="39.0735409" lon="16.2849324"><ele>589.0</ele><time>2026-05-04T20:36:43.791Z</time></trkpt><trkpt lat="39.073579" lon="16.2848673"><ele>589.0</ele><time>2026-05-04T20:36:47.8Z</time></trkpt><trkpt lat="39.073617" lon="16.284802"><ele>589.0</ele><time>2026-05-04T20:36:51.713Z</time></trkpt><trkpt lat="39.0736771" lon="16.2847397"><ele>589.0</ele><time>2026-05-04T20:36:56.73Z</time></trkpt><trkpt lat="39.0737363" lon="16.2846746"><ele>589.0</ele><time>2026-05-04T20:37:01.815Z</time></trkpt><trkpt lat="39.073794" lon="16.2846076"><ele>589.8571428571429</ele><time>2026-05-04T20:37:06.888Z</time></trkpt><trkpt lat="39.073847" lon="16.2845433"><ele>590.7142857142857</ele><time>2026-05-04T20:37:11.888Z</time></trkpt><trkpt lat="39.0739067" lon="16.2844919"><ele>591.5714285714286</ele><time>2026-05-04T20:37:16.813Z</time></trkpt><trkpt lat="39.0739689" lon="16.2844488"><ele>592.4285714285714</ele><time>2026-05-04T20:37:21.888Z</time></trkpt><trkpt lat="39.0740346" lon="16.2844201"><ele>593.2857142857142</ele><time>2026-05-04T20:37:26.839Z</time></trkpt><trkpt lat="39.0741006" lon="16.2843803"><ele>594.1428571428571</ele><time>2026-05-04T20:37:31.888Z</time></trkpt><trkpt lat="39.0741605" lon="16.2843246"><ele>595.0</ele><time>2026-05-04T20:37:36.889Z</time></trkpt><trkpt lat="39.0742269" lon="16.2842823"><ele>595.0</ele><time>2026-05-04T20:37:41.888Z</time></trkpt><trkpt lat="39.0742943" lon="16.2842403"><ele>595.0</ele><time>2026-05-04T20:37:46.888Z</time></trkpt><trkpt lat="39.0743633" lon="16.284209"><ele>595.0</ele><time>2026-05-04T20:37:51.888Z</time></trkpt><trkpt lat="39.0744333" lon="16.2841811"><ele>595.0</ele><time>2026-05-04T20:37:56.795Z</time></trkpt><trkpt lat="39.0745097" lon="16.2841661"><ele>595.0</ele><time>2026-05-04T20:38:01.88Z</time></trkpt><trkpt lat="39.0745738" lon="16.2841398"><ele>595.0</ele><time>2026-05-04T20:38:06.878Z</time></trkpt><trkpt lat="39.0744867" lon="16.2841309"><ele>595.0</ele><time>2026-05-04T20:38:10.889Z</time></trkpt><trkpt lat="39.0744035" lon="16.2841646"><ele>595.0</ele><time>2026-05-04T20:38:13.892Z</time></trkpt><trkpt lat="39.0743198" lon="16.2842146"><ele>595.0</ele><time>2026-05-04T20:38:16.889Z</time></trkpt><trkpt lat="39.0742506" lon="16.2842708"><ele>595.0</ele><time>2026-05-04T20:38:19.888Z</time></trkpt><trkpt lat="39.0741861" lon="16.2843268"><ele>595.0</ele><time>2026-05-04T20:38:22.889Z</time></trkpt><trkpt lat="39.0741259" lon="16.2843834"><ele>595.0</ele><time>2026-05-04T20:38:25.889Z</time></trkpt><trkpt lat="39.0740639" lon="16.2844391"><ele>594.0</ele><time>2026-05-04T20:38:28.798Z</time></trkpt><trkpt lat="39.0739883" lon="16.2844823"><ele>593.0</ele><time>2026-05-04T20:38:31.889Z</time></trkpt><trkpt lat="39.0739127" lon="16.2845128"><ele>592.0</ele><time>2026-05-04T20:38:34.798Z</time></trkpt><trkpt lat="39.0738266" lon="16.2845554"><ele>591.0</ele><time>2026-05-04T20:38:37.888Z</time></trkpt><trkpt lat="39.0737481" lon="16.2845981"><ele>590.0</ele><time>2026-05-04T20:38:40.853Z</time></trkpt><trkpt lat="39.073676" lon="16.2846627"><ele>589.0</ele><time>2026-05-04T20:38:43.888Z</time></trkpt><trkpt lat="39.0736049" lon="16.2847652"><ele>589.0</ele><time>2026-05-04T20:38:46.888Z</time></trkpt><trkpt lat="39.0735485" lon="16.284862"><ele>589.0</ele><time>2026-05-04T20:38:49.888Z</time></trkpt><trkpt lat="39.0734955" lon="16.2849564"><ele>589.0</ele><time>2026-05-04T20:38:52.888Z</time></trkpt><trkpt lat="39.073454" lon="16.2850495"><ele>589.0</ele><time>2026-05-04T20:38:55.888Z</time></trkpt><trkpt lat="39.0734251" lon="16.2851331"><ele>589.0</ele><time>2026-05-04T20:38:58.887Z</time></trkpt><trkpt lat="39.0733989" lon="16.285238"><ele>589.0</ele><time>2026-05-04T20:39:01.926Z</time></trkpt><trkpt lat="39.0733809" lon="16.2853421"><ele>589.0</ele><time>2026-05-04T20:39:04.888Z</time></trkpt><trkpt lat="39.0733567" lon="16.2854498"><ele>589.0</ele><time>2026-05-04T20:39:07.889Z</time></trkpt><trkpt lat="39.0733351" lon="16.2855298"><ele>589.0</ele><time>2026-05-04T20:39:10.889Z</time></trkpt><trkpt lat="39.0732918" lon="16.2856162"><ele>589.0</ele><time>2026-05-04T20:39:13.894Z</time></trkpt><trkpt lat="39.0732472" lon="16.2856848"><ele>589.0</ele><time>2026-05-04T20:39:15.889Z</time></trkpt><trkpt lat="39.0731976" lon="16.2857378"><ele>589.0</ele><time>2026-05-04T20:39:18.889Z</time></trkpt><trkpt lat="39.0731445" lon="16.2858081"><ele>589.0</ele><time>2026-05-04T20:39:21.888Z</time></trkpt><trkpt lat="39.0730867" lon="16.2859"><ele>591.0</ele><time>2026-05-04T20:39:24.852Z</time></trkpt><trkpt lat="39.0730387" lon="16.2859707"><ele>593.0</ele><time>2026-05-04T20:39:26.889Z</time></trkpt><trkpt lat="39.0729875" lon="16.286069"><ele>595.0</ele><time>2026-05-04T20:39:29.889Z</time></trkpt><trkpt lat="39.0729481" lon="16.2861513"><ele>597.0</ele><time>2026-05-04T20:39:32.888Z</time></trkpt><trkpt lat="39.0728826" lon="16.2861391"><ele>599.0</ele><time>2026-05-04T20:39:36.888Z</time></trkpt><trkpt lat="39.0728557" lon="16.2860294"><ele>601.0</ele><time>2026-05-04T20:39:39.888Z</time></trkpt><trkpt lat="39.0728486" lon="16.2859394"><ele>601.0</ele><time>2026-05-04T20:39:41.887Z</time></trkpt><trkpt lat="39.0728444" lon="16.285846"><ele>601.0</ele><time>2026-05-04T20:39:43.895Z</time></trkpt><trkpt lat="39.0728368" lon="16.2857448"><ele>601.0</ele><time>2026-05-04T20:39:45.888Z</time></trkpt><trkpt lat="39.0728339" lon="16.2856572"><ele>601.0</ele><time>2026-05-04T20:39:47.858Z</time></trkpt><trkpt lat="39.0728309" lon="16.2855721"><ele>601.0</ele><time>2026-05-04T20:39:49.918Z</time></trkpt><trkpt lat="39.0728235" lon="16.2854514"><ele>601.0</ele><time>2026-05-04T20:39:52.888Z</time></trkpt><trkpt lat="39.0728134" lon="16.2853694"><ele>601.0</ele><time>2026-05-04T20:39:54.888Z</time></trkpt><trkpt lat="39.0727968" lon="16.2852708"><ele>599.0</ele><time>2026-05-04T20:39:57.889Z</time></trkpt><trkpt lat="39.0727719" lon="16.285183"><ele>597.0</ele><time>2026-05-04T20:40:00.855Z</time></trkpt><trkpt lat="39.072741" lon="16.2850804"><ele>595.0</ele><time>2026-05-04T20:40:03.887Z</time></trkpt><trkpt lat="39.0727166" lon="16.2849721"><ele>593.0</ele><time>2026-05-04T20:40:06.888Z</time></trkpt><trkpt lat="39.072699" lon="16.2848681"><ele>591.0</ele><time>2026-05-04T20:40:09.888Z</time></trkpt><trkpt lat="39.0726862" lon="16.2847872"><ele>589.0</ele><time>2026-05-04T20:40:11.889Z</time></trkpt><trkpt lat="39.0726729" lon="16.2847041"><ele>586.0</ele><time>2026-05-04T20:40:13.888Z</time></trkpt><trkpt lat="39.0726544" lon="16.2846249"><ele>583.0</ele><time>2026-05-04T20:40:15.889Z</time></trkpt><trkpt lat="39.0726307" lon="16.2845486"><ele>580.0</ele><time>2026-05-04T20:40:17.888Z</time></trkpt><trkpt lat="39.0725953" lon="16.2844367"><ele>577.0</ele><time>2026-05-04T20:40:20.889Z</time></trkpt><trkpt lat="39.0725577" lon="16.2843291"><ele>574.0</ele><time>2026-05-04T20:40:23.86Z</time></trkpt><trkpt lat="39.0725289" lon="16.2842522"><ele>571.0</ele><time>2026-05-04T20:40:25.889Z</time></trkpt><trkpt lat="39.0724844" lon="16.2841519"><ele>571.1666666666667</ele><time>2026-05-04T20:40:28.888Z</time></trkpt><trkpt lat="39.0724343" lon="16.2840596"><ele>571.3333333333334</ele><time>2026-05-04T20:40:31.895Z</time></trkpt><trkpt lat="39.0723823" lon="16.2839729"><ele>571.5</ele><time>2026-05-04T20:40:34.798Z</time></trkpt><trkpt lat="39.0723361" lon="16.2838879"><ele>571.6666666666666</ele><time>2026-05-04T20:40:37.889Z</time></trkpt><trkpt lat="39.0722629" lon="16.2838334"><ele>571.8333333333333</ele><time>2026-05-04T20:40:40.888Z</time></trkpt><trkpt lat="39.0721858" lon="16.2838122"><ele>572.0</ele><time>2026-05-04T20:40:43.888Z</time></trkpt><trkpt lat="39.072104" lon="16.2838197"><ele>571.9999999999999</ele><time>2026-05-04T20:40:46.888Z</time></trkpt><trkpt lat="39.0720406" lon="16.2838455"><ele>572.0</ele><time>2026-05-04T20:40:49.979Z</time></trkpt><trkpt lat="39.0719806" lon="16.283913"><ele>572.0</ele><time>2026-05-04T20:40:54.889Z</time></trkpt><trkpt lat="39.0719335" lon="16.2839892"><ele>572.0</ele><time>2026-05-04T20:40:58.813Z</time></trkpt><trkpt lat="39.0718744" lon="16.2840442"><ele>572.0</ele><time>2026-05-04T20:41:03.888Z</time></trkpt><trkpt lat="39.0718267" lon="16.2840996"><ele>571.9999999999999</ele><time>2026-05-04T20:41:08.888Z</time></trkpt><trkpt lat="39.0717591" lon="16.2841465"><ele>572.0</ele><time>2026-05-04T20:41:14.495Z</time></trkpt><trkpt lat="39.0717069" lon="16.2842106"><ele>571.9999999999999</ele><time>2026-05-04T20:41:19.332Z</time></trkpt><trkpt lat="39.071661" lon="16.284268"><ele>572.0</ele><time>2026-05-04T20:41:23.712Z</time></trkpt><trkpt lat="39.0716208" lon="16.2843514"><ele>572.0</ele><time>2026-05-04T20:41:28.888Z</time></trkpt><trkpt lat="39.0715897" lon="16.2844317"><ele>572.0</ele><time>2026-05-04T20:41:33.851Z</time></trkpt><trkpt lat="39.0715605" lon="16.2845115"><ele>572.0</ele><time>2026-05-04T20:41:37.889Z</time></trkpt><trkpt lat="39.0715358" lon="16.2846053"><ele>571.9999999999999</ele><time>2026-05-04T20:41:42.755Z</time></trkpt><trkpt lat="39.0715218" lon="16.2846949"><ele>572.0</ele><time>2026-05-04T20:41:46.888Z</time></trkpt><trkpt lat="39.0715021" lon="16.2847769"><ele>568.5714285714286</ele><time>2026-05-04T20:41:50.892Z</time></trkpt><trkpt lat="39.0714797" lon="16.2848633"><ele>565.1428571428571</ele><time>2026-05-04T20:41:54.89Z</time></trkpt><trkpt lat="39.0714598" lon="16.2849448"><ele>561.7142857142858</ele><time>2026-05-04T20:41:58.888Z</time></trkpt><trkpt lat="39.0714405" lon="16.2850236"><ele>558.2857142857142</ele><time>2026-05-04T20:42:03.013Z</time></trkpt><trkpt lat="39.0714101" lon="16.2851059"><ele>554.8571428571429</ele><time>2026-05-04T20:42:07.799Z</time></trkpt><trkpt lat="39.0713904" lon="16.2851955"><ele>551.4285714285714</ele><time>2026-05-04T20:42:11.889Z</time></trkpt><trkpt lat="39.0713698" lon="16.285284"><ele>548.0</ele><time>2026-05-04T20:42:16.795Z</time></trkpt><trkpt lat="39.0714118" lon="16.2853585"><ele>548.0000000000001</ele><time>2026-05-04T20:42:24.888Z</time></trkpt><trkpt lat="39.0713937" lon="16.2854498"><ele>548.0</ele><time>2026-05-04T20:42:25.887Z</time></trkpt><trkpt lat="39.0713743" lon="16.2855357"><ele>548.0</ele><time>2026-05-04T20:42:30.014Z</time></trkpt><trkpt lat="39.0713231" lon="16.2856102"><ele>548.0</ele><time>2026-05-04T20:42:34.982Z</time></trkpt><trkpt lat="39.0712629" lon="16.2856481"><ele>548.0</ele><time>2026-05-04T20:42:38.889Z</time></trkpt><trkpt lat="39.0711869" lon="16.2856763"><ele>548.0000000000001</ele><time>2026-05-04T20:42:43.021Z</time></trkpt><trkpt lat="39.0711079" lon="16.2856897"><ele>548.0</ele><time>2026-05-04T20:42:46.919Z</time></trkpt><trkpt lat="39.0710416" lon="16.2857129"><ele>545.4285714285714</ele><time>2026-05-04T20:42:51.532Z</time></trkpt><trkpt lat="39.0709725" lon="16.2857303"><ele>542.8571428571429</ele><time>2026-05-04T20:42:56.889Z</time></trkpt><trkpt lat="39.0709086" lon="16.2857723"><ele>540.2857142857142</ele><time>2026-05-04T20:43:01.633Z</time></trkpt><trkpt lat="39.0708374" lon="16.2858113"><ele>537.7142857142858</ele><time>2026-05-04T20:43:06.888Z</time></trkpt><trkpt lat="39.0707623" lon="16.2857882"><ele>535.1428571428571</ele><time>2026-05-04T20:43:11.888Z</time></trkpt><trkpt lat="39.0706928" lon="16.285822"><ele>532.5714285714286</ele><time>2026-05-04T20:43:17.888Z</time></trkpt><trkpt lat="39.0706633" lon="16.2858985"><ele>530.0</ele><time>2026-05-04T20:43:21.923Z</time></trkpt><trkpt lat="39.0706592" lon="16.2859885"><ele>529.9999999999999</ele><time>2026-05-04T20:43:25.889Z</time></trkpt><trkpt lat="39.0706489" lon="16.2860867"><ele>530.0</ele><time>2026-05-04T20:43:30.874Z</time></trkpt><trkpt lat="39.0706313" lon="16.2861814"><ele>530.0</ele><time>2026-05-04T20:43:35.74Z</time></trkpt><trkpt lat="39.0706124" lon="16.2862749"><ele>530.0</ele><time>2026-05-04T20:43:40.795Z</time></trkpt><trkpt lat="39.0705939" lon="16.2863648"><ele>530.0</ele><time>2026-05-04T20:43:45.72Z</time></trkpt><trkpt lat="39.0705819" lon="16.286455"><ele>529.9999999999999</ele><time>2026-05-04T20:43:50.889Z</time></trkpt><trkpt lat="39.0705694" lon="16.2865516"><ele>530.0</ele><time>2026-05-04T20:43:55.916Z</time></trkpt><trkpt lat="39.0705657" lon="16.2866475"><ele>532.1428571428571</ele><time>2026-05-04T20:44:00.81Z</time></trkpt><trkpt lat="39.070549" lon="16.2867445"><ele>534.2857142857142</ele><time>2026-05-04T20:44:05.657Z</time></trkpt><trkpt lat="39.0705367" lon="16.2868414"><ele>536.4285714285714</ele><time>2026-05-04T20:44:10.519Z</time></trkpt><trkpt lat="39.0705216" lon="16.2869395"><ele>538.5714285714286</ele><time>2026-05-04T20:44:15.331Z</time></trkpt><trkpt lat="39.0705178" lon="16.2870351"><ele>540.7142857142858</ele><time>2026-05-04T20:44:20.176Z</time></trkpt><trkpt lat="39.0705141" lon="16.2871296"><ele>542.8571428571429</ele><time>2026-05-04T20:44:25.072Z</time></trkpt><trkpt lat="39.0705075" lon="16.287215"><ele>545.0</ele><time>2026-05-04T20:44:28.996Z</time></trkpt><trkpt lat="39.0704917" lon="16.2873142"><ele>546.7142857142858</ele><time>2026-05-04T20:44:33.813Z</time></trkpt><trkpt lat="39.070475" lon="16.2874056"><ele>548.4285714285714</ele><time>2026-05-04T20:44:38.592Z</time></trkpt><trkpt lat="39.0704719" lon="16.2874962"><ele>550.1428571428571</ele><time>2026-05-04T20:44:43.391Z</time></trkpt><trkpt lat="39.0704724" lon="16.287587"><ele>551.8571428571429</ele><time>2026-05-04T20:44:48.19Z</time></trkpt><trkpt lat="39.0704728" lon="16.2876745"><ele>553.5714285714286</ele><time>2026-05-04T20:44:52.656Z</time></trkpt><trkpt lat="39.0704865" lon="16.2877616"><ele>555.2857142857143</ele><time>2026-05-04T20:44:56.874Z</time></trkpt><trkpt lat="39.0705072" lon="16.2878583"><ele>557.0</ele><time>2026-05-04T20:45:01.711Z</time></trkpt><trkpt lat="39.0705398" lon="16.2879295"><ele>557.0</ele><time>2026-05-04T20:45:05.888Z</time></trkpt><trkpt lat="39.0705985" lon="16.2879914"><ele>557.0</ele><time>2026-05-04T20:45:10.891Z</time></trkpt><trkpt lat="39.0706534" lon="16.2880466"><ele>557.0</ele><time>2026-05-04T20:45:15.755Z</time></trkpt><trkpt lat="39.0707074" lon="16.2881072"><ele>557.0</ele><time>2026-05-04T20:45:20.889Z</time></trkpt><trkpt lat="39.0707575" lon="16.2881824"><ele>557.0</ele><time>2026-05-04T20:45:25.888Z</time></trkpt><trkpt lat="39.070799" lon="16.2882481"><ele>557.0</ele><time>2026-05-04T20:45:29.857Z</time></trkpt><trkpt lat="39.0708507" lon="16.2883223"><ele>557.0</ele><time>2026-05-04T20:45:34.714Z</time></trkpt><trkpt lat="39.0708946" lon="16.2883811"><ele>556.7142857142858</ele><time>2026-05-04T20:45:38.889Z</time></trkpt><trkpt lat="39.0709204" lon="16.2884748"><ele>556.4285714285714</ele><time>2026-05-04T20:45:43.888Z</time></trkpt><trkpt lat="39.0708948" lon="16.2885669"><ele>556.1428571428571</ele><time>2026-05-04T20:45:48.253Z</time></trkpt><trkpt lat="39.0708442" lon="16.2886295"><ele>555.8571428571429</ele><time>2026-05-04T20:45:52.039Z</time></trkpt><trkpt lat="39.070784" lon="16.2886644"><ele>555.5714285714286</ele><time>2026-05-04T20:45:55.852Z</time></trkpt><trkpt lat="39.0707194" lon="16.2886474"><ele>555.2857142857143</ele><time>2026-05-04T20:45:59.65Z</time></trkpt><trkpt lat="39.0706537" lon="16.2886224"><ele>555.0</ele><time>2026-05-04T20:46:03.461Z</time></trkpt><trkpt lat="39.0705761" lon="16.288609"><ele>555.0000000000001</ele><time>2026-05-04T20:46:07.921Z</time></trkpt><trkpt lat="39.070496" lon="16.288593"><ele>555.0</ele><time>2026-05-04T20:46:11.986Z</time></trkpt><trkpt lat="39.070427" lon="16.2886056"><ele>555.0</ele><time>2026-05-04T20:46:15.889Z</time></trkpt><trkpt lat="39.0703648" lon="16.2886217"><ele>555.0</ele><time>2026-05-04T20:46:19.888Z</time></trkpt><trkpt lat="39.0702897" lon="16.2886442"><ele>555.0</ele><time>2026-05-04T20:46:24.916Z</time></trkpt><trkpt lat="39.0702307" lon="16.2887081"><ele>555.0000000000001</ele><time>2026-05-04T20:46:29.873Z</time></trkpt><trkpt lat="39.0702198" lon="16.2887944"><ele>555.0</ele><time>2026-05-04T20:46:33.971Z</time></trkpt><trkpt lat="39.0701696" lon="16.2888442"><ele>553.5714285714287</ele><time>2026-05-04T20:46:37.889Z</time></trkpt><trkpt lat="39.0701219" lon="16.2889275"><ele>552.1428571428571</ele><time>2026-05-04T20:46:43.009Z</time></trkpt><trkpt lat="39.0700958" lon="16.289005"><ele>550.7142857142858</ele><time>2026-05-04T20:46:47.98Z</time></trkpt><trkpt lat="39.0700809" lon="16.2890937"><ele>549.2857142857143</ele><time>2026-05-04T20:46:52.976Z</time></trkpt><trkpt lat="39.0700456" lon="16.2891746"><ele>547.8571428571429</ele><time>2026-05-04T20:46:56.888Z</time></trkpt><trkpt lat="39.0699912" lon="16.2892399"><ele>546.4285714285714</ele><time>2026-05-04T20:47:01.294Z</time></trkpt><trkpt lat="39.0699202" lon="16.289255"><ele>545.0</ele><time>2026-05-04T20:47:06.216Z</time></trkpt><trkpt lat="39.0698526" lon="16.2892596"><ele>545.0</ele><time>2026-05-04T20:47:11.159Z</time></trkpt><trkpt lat="39.0697832" lon="16.289286"><ele>545.0</ele><time>2026-05-04T20:47:16.888Z</time></trkpt><trkpt lat="39.0697214" lon="16.2893262"><ele>545.0</ele><time>2026-05-04T20:47:21.887Z</time></trkpt><trkpt lat="39.0696577" lon="16.2893528"><ele>545.0</ele><time>2026-05-04T20:47:26.889Z</time></trkpt><trkpt lat="39.0696083" lon="16.2894308"><ele>545.0</ele><time>2026-05-04T20:47:31.888Z</time></trkpt><trkpt lat="39.0695776" lon="16.289505"><ele>545.0</ele><time>2026-05-04T20:47:35.888Z</time></trkpt><trkpt lat="39.069552" lon="16.2895957"><ele>545.0</ele><time>2026-05-04T20:47:40.888Z</time></trkpt><trkpt lat="39.0695261" lon="16.2896863"><ele>548.8571428571429</ele><time>2026-05-04T20:47:45.888Z</time></trkpt><trkpt lat="39.0695092" lon="16.2897769"><ele>552.7142857142858</ele><time>2026-05-04T20:47:50.888Z</time></trkpt><trkpt lat="39.06948" lon="16.2898675"><ele>556.5714285714286</ele><time>2026-05-04T20:47:55.89Z</time></trkpt><trkpt lat="39.0694501" lon="16.2899524"><ele>560.4285714285714</ele><time>2026-05-04T20:48:00.887Z</time></trkpt><trkpt lat="39.0694154" lon="16.290041"><ele>564.2857142857142</ele><time>2026-05-04T20:48:05.942Z</time></trkpt><trkpt lat="39.0693596" lon="16.2900982"><ele>568.1428571428571</ele><time>2026-05-04T20:48:10.697Z</time></trkpt><trkpt lat="39.0692986" lon="16.2901549"><ele>572.0</ele><time>2026-05-04T20:48:15.901Z</time></trkpt><trkpt lat="39.0692412" lon="16.290213"><ele>571.9999999999999</ele><time>2026-05-04T20:48:20.889Z</time></trkpt><trkpt lat="39.0691866" lon="16.2902771"><ele>572.0</ele><time>2026-05-04T20:48:25.888Z</time></trkpt><trkpt lat="39.0691357" lon="16.290348"><ele>572.0</ele><time>2026-05-04T20:48:30.888Z</time></trkpt><trkpt lat="39.0690776" lon="16.2904149"><ele>572.0</ele><time>2026-05-04T20:48:35.889Z</time></trkpt><trkpt lat="39.0690216" lon="16.2904678"><ele>572.0</ele><time>2026-05-04T20:48:40.395Z</time></trkpt><trkpt lat="39.0689676" lon="16.2905155"><ele>571.9999999999999</ele><time>2026-05-04T20:48:44.887Z</time></trkpt><trkpt lat="39.0689195" lon="16.2905681"><ele>572.0</ele><time>2026-05-04T20:48:48.888Z</time></trkpt><trkpt lat="39.0688757" lon="16.2906265"><ele>569.1428571428571</ele><time>2026-05-04T20:48:52.889Z</time></trkpt><trkpt lat="39.068837" lon="16.2907078"><ele>566.2857142857142</ele><time>2026-05-04T20:48:57.888Z</time></trkpt><trkpt lat="39.0688017" lon="16.2907944"><ele>563.4285714285714</ele><time>2026-05-04T20:49:02.888Z</time></trkpt><trkpt lat="39.0687698" lon="16.2908782"><ele>560.5714285714286</ele><time>2026-05-04T20:49:07.798Z</time></trkpt><trkpt lat="39.068743" lon="16.2909631"><ele>557.7142857142858</ele><time>2026-05-04T20:49:12.853Z</time></trkpt><trkpt lat="39.0687222" lon="16.291053"><ele>554.8571428571429</ele><time>2026-05-04T20:49:17.891Z</time></trkpt><trkpt lat="39.0686889" lon="16.2911357"><ele>552.0</ele><time>2026-05-04T20:49:23.1Z</time></trkpt><trkpt lat="39.0686479" lon="16.2912365"><ele>552.0</ele><time>2026-05-04T20:49:28.982Z</time></trkpt><trkpt lat="39.0686212" lon="16.2913218"><ele>552.0</ele><time>2026-05-04T20:49:33.98Z</time></trkpt><trkpt lat="39.0685947" lon="16.2914037"><ele>552.0</ele><time>2026-05-04T20:49:38.889Z</time></trkpt><trkpt lat="39.068567" lon="16.2914957"><ele>552.0</ele><time>2026-05-04T20:49:43.919Z</time></trkpt><trkpt lat="39.0685376" lon="16.2915865"><ele>552.0</ele><time>2026-05-04T20:49:48.854Z</time></trkpt><trkpt lat="39.0685086" lon="16.2916804"><ele>552.0</ele><time>2026-05-04T20:49:53.937Z</time></trkpt><trkpt lat="39.0684837" lon="16.2917648"><ele>552.0</ele><time>2026-05-04T20:49:58.921Z</time></trkpt><trkpt lat="39.0684592" lon="16.2918485"><ele>553.4285714285714</ele><time>2026-05-04T20:50:03.888Z</time></trkpt><trkpt lat="39.0684276" lon="16.2919253"><ele>554.8571428571429</ele><time>2026-05-04T20:50:08.888Z</time></trkpt><trkpt lat="39.0684121" lon="16.2920085"><ele>556.2857142857143</ele><time>2026-05-04T20:50:12.889Z</time></trkpt><trkpt lat="39.0683757" lon="16.2921044"><ele>557.7142857142858</ele><time>2026-05-04T20:50:18.534Z</time></trkpt><trkpt lat="39.0683437" lon="16.2921915"><ele>559.1428571428571</ele><time>2026-05-04T20:50:23.889Z</time></trkpt><trkpt lat="39.0683094" lon="16.2922797"><ele>560.5714285714287</ele><time>2026-05-04T20:50:29.236Z</time></trkpt><trkpt lat="39.0682771" lon="16.2923594"><ele>562.0</ele><time>2026-05-04T20:50:33.888Z</time></trkpt><trkpt lat="39.0682461" lon="16.2924446"><ele>562.0000000000001</ele><time>2026-05-04T20:50:38.888Z</time></trkpt><trkpt lat="39.0682152" lon="16.2925337"><ele>562.0</ele><time>2026-05-04T20:50:43.982Z</time></trkpt><trkpt lat="39.0681909" lon="16.2926165"><ele>562.0</ele><time>2026-05-04T20:50:48.978Z</time></trkpt><trkpt lat="39.068166" lon="16.2926996"><ele>562.0</ele><time>2026-05-04T20:50:53.887Z</time></trkpt><trkpt lat="39.0681422" lon="16.2927926"><ele>562.0</ele><time>2026-05-04T20:50:58.888Z</time></trkpt><trkpt lat="39.068118" lon="16.2928806"><ele>562.0000000000001</ele><time>2026-05-04T20:51:03.888Z</time></trkpt><trkpt lat="39.0680982" lon="16.2929746"><ele>562.0</ele><time>2026-05-04T20:51:08.889Z</time></trkpt><trkpt lat="39.068072" lon="16.2930598"><ele>563.8571428571429</ele><time>2026-05-04T20:51:13.853Z</time></trkpt><trkpt lat="39.0680521" lon="16.2931485"><ele>565.7142857142858</ele><time>2026-05-04T20:51:18.796Z</time></trkpt><trkpt lat="39.0680221" lon="16.2932377"><ele>567.5714285714286</ele><time>2026-05-04T20:51:23.983Z</time></trkpt><trkpt lat="39.0680027" lon="16.293328"><ele>569.4285714285714</ele><time>2026-05-04T20:51:28.879Z</time></trkpt><trkpt lat="39.06797" lon="16.2934046"><ele>571.2857142857142</ele><time>2026-05-04T20:51:33.889Z</time></trkpt><trkpt lat="39.067948" lon="16.2934946"><ele>573.1428571428571</ele><time>2026-05-04T20:51:39.077Z</time></trkpt><trkpt lat="39.0679278" lon="16.2935814"><ele>575.0</ele><time>2026-05-04T20:51:43.17Z</time></trkpt><trkpt lat="39.0678846" lon="16.2936538"><ele>575.0</ele><time>2026-05-04T20:51:47.331Z</time></trkpt><trkpt lat="39.0678284" lon="16.2936939"><ele>575.0</ele><time>2026-05-04T20:51:52.889Z</time></trkpt><trkpt lat="39.0679192" lon="16.2935437"><ele>575.0</ele><time>2026-05-04T20:51:59.994Z</time></trkpt><trkpt lat="39.0679667" lon="16.2934562"><ele>575.0</ele><time>2026-05-04T20:52:03.614Z</time></trkpt><trkpt lat="39.0680061" lon="16.2933789"><ele>575.0</ele><time>2026-05-04T20:52:06.879Z</time></trkpt><trkpt lat="39.0680375" lon="16.2932807"><ele>575.0</ele><time>2026-05-04T20:52:09.889Z</time></trkpt><trkpt lat="39.0680537" lon="16.2931794"><ele>572.8333333333333</ele><time>2026-05-04T20:52:12.899Z</time></trkpt><trkpt lat="39.0680888" lon="16.2930885"><ele>570.6666666666666</ele><time>2026-05-04T20:52:15.889Z</time></trkpt><trkpt lat="39.0681182" lon="16.2930026"><ele>568.5</ele><time>2026-05-04T20:52:18.857Z</time></trkpt><trkpt lat="39.0681555" lon="16.292911"><ele>566.3333333333334</ele><time>2026-05-04T20:52:21.889Z</time></trkpt><trkpt lat="39.0681896" lon="16.2928149"><ele>564.1666666666667</ele><time>2026-05-04T20:52:24.857Z</time></trkpt><trkpt lat="39.0682207" lon="16.2927257"><ele>562.0</ele><time>2026-05-04T20:52:27.888Z</time></trkpt><trkpt lat="39.0682473" lon="16.2926418"><ele>562.0</ele><time>2026-05-04T20:52:30.892Z</time></trkpt><trkpt lat="39.0682703" lon="16.2925453"><ele>562.0</ele><time>2026-05-04T20:52:33.973Z</time></trkpt><trkpt lat="39.06829" lon="16.2924495"><ele>562.0</ele><time>2026-05-04T20:52:36.889Z</time></trkpt><trkpt lat="39.0683145" lon="16.2923578"><ele>562.0</ele><time>2026-05-04T20:52:39.927Z</time></trkpt><trkpt lat="39.0683298" lon="16.2922586"><ele>562.0</ele><time>2026-05-04T20:52:42.94Z</time></trkpt><trkpt lat="39.0683533" lon="16.2921692"><ele>562.0</ele><time>2026-05-04T20:52:45.889Z</time></trkpt><trkpt lat="39.0683764" lon="16.292073"><ele>564.8333333333334</ele><time>2026-05-04T20:52:48.878Z</time></trkpt><trkpt lat="39.0684003" lon="16.291964"><ele>567.6666666666667</ele><time>2026-05-04T20:52:51.983Z</time></trkpt><trkpt lat="39.0684281" lon="16.2918631"><ele>570.5</ele><time>2026-05-04T20:52:55.096Z</time></trkpt><trkpt lat="39.0684525" lon="16.2917812"><ele>573.3333333333334</ele><time>2026-05-04T20:52:57.896Z</time></trkpt><trkpt lat="39.0684825" lon="16.2916904"><ele>576.1666666666666</ele><time>2026-05-04T20:53:00.985Z</time></trkpt><trkpt lat="39.0685134" lon="16.2916095"><ele>579.0</ele><time>2026-05-04T20:53:03.888Z</time></trkpt><trkpt lat="39.0685391" lon="16.2915144"><ele>575.1428571428571</ele><time>2026-05-04T20:53:06.887Z</time></trkpt><trkpt lat="39.0685711" lon="16.2914192"><ele>571.2857142857142</ele><time>2026-05-04T20:53:09.916Z</time></trkpt><trkpt lat="39.0686058" lon="16.2913251"><ele>567.4285714285714</ele><time>2026-05-04T20:53:13.008Z</time></trkpt><trkpt lat="39.068646" lon="16.2912487"><ele>563.5714285714286</ele><time>2026-05-04T20:53:15.557Z</time></trkpt><trkpt lat="39.0686831" lon="16.2911826"><ele>559.7142857142858</ele><time>2026-05-04T20:53:17.888Z</time></trkpt><trkpt lat="39.0687306" lon="16.2910875"><ele>555.8571428571429</ele><time>2026-05-04T20:53:20.984Z</time></trkpt><trkpt lat="39.0687452" lon="16.2910062"><ele>552.0</ele><time>2026-05-04T20:53:23.251Z</time></trkpt><trkpt lat="39.0687591" lon="16.2909216"><ele>552.0</ele><time>2026-05-04T20:53:25.355Z</time></trkpt><trkpt lat="39.0687785" lon="16.2908397"><ele>552.0</ele><time>2026-05-04T20:53:27.832Z</time></trkpt><trkpt lat="39.0688129" lon="16.2907585"><ele>552.0</ele><time>2026-05-04T20:53:30.887Z</time></trkpt><trkpt lat="39.0688656" lon="16.2906915"><ele>552.0</ele><time>2026-05-04T20:53:33.888Z</time></trkpt><trkpt lat="39.0689293" lon="16.2906206"><ele>552.0</ele><time>2026-05-04T20:53:36.888Z</time></trkpt><trkpt lat="39.0689873" lon="16.2905539"><ele>552.0</ele><time>2026-05-04T20:53:39.889Z</time></trkpt><trkpt lat="39.0690555" lon="16.2904846"><ele>555.3333333333334</ele><time>2026-05-04T20:53:42.888Z</time></trkpt><trkpt lat="39.0691216" lon="16.2904193"><ele>558.6666666666666</ele><time>2026-05-04T20:53:45.797Z</time></trkpt><trkpt lat="39.069182" lon="16.2903486"><ele>562.0</ele><time>2026-05-04T20:53:48.856Z</time></trkpt><trkpt lat="39.0692448" lon="16.2902648"><ele>565.3333333333333</ele><time>2026-05-04T20:53:51.979Z</time></trkpt><trkpt lat="39.0693014" lon="16.2901858"><ele>568.6666666666666</ele><time>2026-05-04T20:53:54.938Z</time></trkpt><trkpt lat="39.0693637" lon="16.2901079"><ele>572.0</ele><time>2026-05-04T20:53:57.889Z</time></trkpt><trkpt lat="39.0694164" lon="16.2900485"><ele>571.9999999999999</ele><time>2026-05-04T20:54:00.889Z</time></trkpt><trkpt lat="39.0694647" lon="16.289996"><ele>572.0</ele><time>2026-05-04T20:54:05.888Z</time></trkpt><trkpt lat="39.0694942" lon="16.2899165"><ele>572.0</ele><time>2026-05-04T20:54:10.923Z</time></trkpt><trkpt lat="39.0695214" lon="16.2898086"><ele>572.0</ele><time>2026-05-04T20:54:16.619Z</time></trkpt><trkpt lat="39.0695466" lon="16.2897251"><ele>572.0</ele><time>2026-05-04T20:54:20.975Z</time></trkpt><trkpt lat="39.0695763" lon="16.2896335"><ele>571.9999999999999</ele><time>2026-05-04T20:54:25.817Z</time></trkpt><trkpt lat="39.0696024" lon="16.2895593"><ele>572.0</ele><time>2026-05-04T20:54:29.887Z</time></trkpt><trkpt lat="39.0696377" lon="16.2894722"><ele>572.2857142857142</ele><time>2026-05-04T20:54:34.872Z</time></trkpt><trkpt lat="39.0696885" lon="16.2894044"><ele>572.5714285714286</ele><time>2026-05-04T20:54:39.888Z</time></trkpt><trkpt lat="39.0697502" lon="16.2893722"><ele>572.8571428571429</ele><time>2026-05-04T20:54:43.888Z</time></trkpt><trkpt lat="39.0698138" lon="16.2893728"><ele>573.1428571428571</ele><time>2026-05-04T20:54:47.889Z</time></trkpt><trkpt lat="39.0698744" lon="16.2894026"><ele>573.4285714285714</ele><time>2026-05-04T20:54:51.889Z</time></trkpt><trkpt lat="39.0699399" lon="16.2894383"><ele>573.7142857142857</ele><time>2026-05-04T20:54:56.888Z</time></trkpt><trkpt lat="39.0700088" lon="16.2894769"><ele>574.0</ele><time>2026-05-04T20:55:01.887Z</time></trkpt><trkpt lat="39.0700803" lon="16.289504"><ele>574.0</ele><time>2026-05-04T20:55:06.888Z</time></trkpt><trkpt lat="39.0701529" lon="16.2895095"><ele>574.0</ele><time>2026-05-04T20:55:12.834Z</time></trkpt><trkpt lat="39.0702088" lon="16.2894557"><ele>574.0</ele><time>2026-05-04T20:55:17.632Z</time></trkpt><trkpt lat="39.0702469" lon="16.2893903"><ele>574.0</ele><time>2026-05-04T20:55:21.756Z</time></trkpt><trkpt lat="39.0702768" lon="16.2893146"><ele>574.0</ele><time>2026-05-04T20:55:26.889Z</time></trkpt><trkpt lat="39.0703035" lon="16.289241"><ele>574.0</ele><time>2026-05-04T20:55:31.888Z</time></trkpt><trkpt lat="39.0703459" lon="16.2891716"><ele>574.0</ele><time>2026-05-04T20:55:37.888Z</time></trkpt><trkpt lat="39.070401" lon="16.2891029"><ele>574.0</ele><time>2026-05-04T20:55:43.819Z</time></trkpt><trkpt lat="39.0704529" lon="16.2890528"><ele>574.0</ele><time>2026-05-04T20:55:49.888Z</time></trkpt><trkpt lat="39.070515" lon="16.289008"><ele>574.0</ele><time>2026-05-04T20:55:55.888Z</time></trkpt><trkpt lat="39.0705777" lon="16.2889587"><ele>574.0</ele><time>2026-05-04T20:56:01.889Z</time></trkpt><trkpt lat="39.0706418" lon="16.288946"><ele>574.0</ele><time>2026-05-04T20:56:06.888Z</time></trkpt><trkpt lat="39.0707039" lon="16.2889265"><ele>574.0</ele><time>2026-05-04T20:56:11.889Z</time></trkpt><trkpt lat="39.0707674" lon="16.2889252"><ele>574.0</ele><time>2026-05-04T20:56:16.888Z</time></trkpt><trkpt lat="39.0708333" lon="16.2889528"><ele>574.8571428571429</ele><time>2026-05-04T20:56:22.888Z</time></trkpt><trkpt lat="39.0709019" lon="16.2889794"><ele>575.7142857142858</ele><time>2026-05-04T20:56:28.797Z</time></trkpt><trkpt lat="39.0709793" lon="16.2889907"><ele>576.5714285714286</ele><time>2026-05-04T20:56:34.888Z</time></trkpt><trkpt lat="39.0710443" lon="16.2889941"><ele>577.4285714285714</ele><time>2026-05-04T20:56:39.889Z</time></trkpt><trkpt lat="39.0711137" lon="16.2889861"><ele>578.2857142857143</ele><time>2026-05-04T20:56:44.888Z</time></trkpt><trkpt lat="39.0711645" lon="16.2889199"><ele>579.1428571428571</ele><time>2026-05-04T20:56:49.888Z</time></trkpt><trkpt lat="39.0711994" lon="16.2888249"><ele>580.0</ele><time>2026-05-04T20:56:54.896Z</time></trkpt><trkpt lat="39.0712098" lon="16.2887308"><ele>580.0</ele><time>2026-05-04T20:56:58.839Z</time></trkpt><trkpt lat="39.0712091" lon="16.2886327"><ele>580.0</ele><time>2026-05-04T20:57:03.751Z</time></trkpt><trkpt lat="39.0712074" lon="16.2885409"><ele>580.0</ele><time>2026-05-04T20:57:08.732Z</time></trkpt><trkpt lat="39.0712069" lon="16.2884532"><ele>580.0</ele><time>2026-05-04T20:57:13.711Z</time></trkpt><trkpt lat="39.071188" lon="16.2883606"><ele>580.0</ele><time>2026-05-04T20:57:18.759Z</time></trkpt><trkpt lat="39.0711687" lon="16.2882799"><ele>580.0</ele><time>2026-05-04T20:57:23.671Z</time></trkpt><trkpt lat="39.0711484" lon="16.2881944"><ele>580.0</ele><time>2026-05-04T20:57:28.651Z</time></trkpt><trkpt lat="39.0711301" lon="16.2881104"><ele>580.4285714285714</ele><time>2026-05-04T20:57:33.612Z</time></trkpt><trkpt lat="39.0711105" lon="16.2880307"><ele>580.8571428571429</ele><time>2026-05-04T20:57:38.517Z</time></trkpt><trkpt lat="39.0710887" lon="16.2879461"><ele>581.2857142857143</ele><time>2026-05-04T20:57:43.438Z</time></trkpt><trkpt lat="39.0710837" lon="16.2878535"><ele>581.7142857142858</ele><time>2026-05-04T20:57:48.257Z</time></trkpt><trkpt lat="39.0710916" lon="16.2877607"><ele>582.1428571428571</ele><time>2026-05-04T20:57:54.217Z</time></trkpt><trkpt lat="39.071107" lon="16.2876779"><ele>582.5714285714287</ele><time>2026-05-04T20:57:59.072Z</time></trkpt><trkpt lat="39.0711414" lon="16.2875926"><ele>583.0</ele><time>2026-05-04T20:58:03.977Z</time></trkpt><trkpt lat="39.0711657" lon="16.2875148"><ele>583.0000000000001</ele><time>2026-05-04T20:58:07.919Z</time></trkpt><trkpt lat="39.071185" lon="16.2874365"><ele>583.0</ele><time>2026-05-04T20:58:11.814Z</time></trkpt><trkpt lat="39.0712096" lon="16.287343"><ele>583.0</ele><time>2026-05-04T20:58:16.678Z</time></trkpt><trkpt lat="39.0712291" lon="16.2872473"><ele>583.0</ele><time>2026-05-04T20:58:21.631Z</time></trkpt><trkpt lat="39.0712371" lon="16.2871544"><ele>583.0</ele><time>2026-05-04T20:58:27.555Z</time></trkpt><trkpt lat="39.0712495" lon="16.2870645"><ele>583.0000000000001</ele><time>2026-05-04T20:58:31.977Z</time></trkpt><trkpt lat="39.0712406" lon="16.286967"><ele>583.0</ele><time>2026-05-04T20:58:36.798Z</time></trkpt><trkpt lat="39.0712309" lon="16.2868722"><ele>582.2857142857143</ele><time>2026-05-04T20:58:41.888Z</time></trkpt><trkpt lat="39.071228" lon="16.286789"><ele>581.5714285714286</ele><time>2026-05-04T20:58:45.892Z</time></trkpt><trkpt lat="39.0712315" lon="16.2867052"><ele>580.8571428571429</ele><time>2026-05-04T20:58:49.971Z</time></trkpt><trkpt lat="39.0712528" lon="16.2866144"><ele>580.1428571428571</ele><time>2026-05-04T20:58:54.889Z</time></trkpt><trkpt lat="39.07127" lon="16.2865175"><ele>579.4285714285714</ele><time>2026-05-04T20:58:59.889Z</time></trkpt><trkpt lat="39.0712976" lon="16.2864311"><ele>578.7142857142858</ele><time>2026-05-04T20:59:04.889Z</time></trkpt><trkpt lat="39.0713449" lon="16.2863565"><ele>578.0</ele><time>2026-05-04T20:59:09.932Z</time></trkpt><trkpt lat="39.0713968" lon="16.2862882"><ele>576.7142857142858</ele><time>2026-05-04T20:59:14.895Z</time></trkpt><trkpt lat="39.0714568" lon="16.2862311"><ele>575.4285714285714</ele><time>2026-05-04T20:59:19.888Z</time></trkpt><trkpt lat="39.0715145" lon="16.2861675"><ele>574.1428571428571</ele><time>2026-05-04T20:59:24.889Z</time></trkpt><trkpt lat="39.0715651" lon="16.2861044"><ele>572.8571428571429</ele><time>2026-05-04T20:59:30.01Z</time></trkpt><trkpt lat="39.0716153" lon="16.2860343"><ele>571.5714285714286</ele><time>2026-05-04T20:59:35.034Z</time></trkpt><trkpt lat="39.0716659" lon="16.2859722"><ele>570.2857142857143</ele><time>2026-05-04T20:59:39.452Z</time></trkpt><trkpt lat="39.0717163" lon="16.2859074"><ele>569.0</ele><time>2026-05-04T20:59:43.889Z</time></trkpt><trkpt lat="39.0717683" lon="16.285833"><ele>570.5714285714287</ele><time>2026-05-04T20:59:48.917Z</time></trkpt><trkpt lat="39.0718203" lon="16.2857576"><ele>572.1428571428571</ele><time>2026-05-04T20:59:53.86Z</time></trkpt><trkpt lat="39.0718631" lon="16.2856863"><ele>573.7142857142858</ele><time>2026-05-04T20:59:58.277Z</time></trkpt><trkpt lat="39.0718915" lon="16.2856054"><ele>575.2857142857143</ele><time>2026-05-04T21:00:03.152Z</time></trkpt><trkpt lat="39.0719152" lon="16.2855227"><ele>576.8571428571429</ele><time>2026-05-04T21:00:07.95Z</time></trkpt><trkpt lat="39.0719464" lon="16.2854332"><ele>578.4285714285714</ele><time>2026-05-04T21:00:12.94Z</time></trkpt><trkpt lat="39.0719491" lon="16.2853349"><ele>580.0</ele><time>2026-05-04T21:00:17.888Z</time></trkpt><trkpt lat="39.0719825" lon="16.2852361"><ele>580.0</ele><time>2026-05-04T21:00:21.888Z</time></trkpt><trkpt lat="39.0720254" lon="16.2851513"><ele>580.0</ele><time>2026-05-04T21:00:24.99Z</time></trkpt><trkpt lat="39.0720777" lon="16.2850621"><ele>580.0</ele><time>2026-05-04T21:00:28.889Z</time></trkpt><trkpt lat="39.0721352" lon="16.2850094"><ele>580.0</ele><time>2026-05-04T21:00:31.831Z</time></trkpt><trkpt lat="39.0721966" lon="16.2849469"><ele>580.0</ele><time>2026-05-04T21:00:34.889Z</time></trkpt><trkpt lat="39.0722643" lon="16.2849126"><ele>580.0</ele><time>2026-05-04T21:00:37.888Z</time></trkpt><trkpt lat="39.0723369" lon="16.2848955"><ele>580.0</ele><time>2026-05-04T21:00:40.889Z</time></trkpt><trkpt lat="39.0724188" lon="16.2849268"><ele>580.0</ele><time>2026-05-04T21:00:43.888Z</time></trkpt><trkpt lat="39.0724608" lon="16.2849987"><ele>580.0</ele><time>2026-05-04T21:00:45.888Z</time></trkpt><trkpt lat="39.0725102" lon="16.2850883"><ele>580.0</ele><time>2026-05-04T21:00:48.817Z</time></trkpt><trkpt lat="39.0725405" lon="16.2851616"><ele>580.0</ele><time>2026-05-04T21:00:50.918Z</time></trkpt><trkpt lat="39.0725746" lon="16.2852336"><ele>580.0</ele><time>2026-05-04T21:00:52.888Z</time></trkpt><trkpt lat="39.0726177" lon="16.2853211"><ele>581.2857142857143</ele><time>2026-05-04T21:00:55.888Z</time></trkpt><trkpt lat="39.0726461" lon="16.2854065"><ele>582.5714285714287</ele><time>2026-05-04T21:00:58.814Z</time></trkpt><trkpt lat="39.0726904" lon="16.2854993"><ele>583.8571428571429</ele><time>2026-05-04T21:01:01.889Z</time></trkpt><trkpt lat="39.0727323" lon="16.285567"><ele>585.1428571428571</ele><time>2026-05-04T21:01:04.888Z</time></trkpt><trkpt lat="39.0727559" lon="16.2856476"><ele>586.4285714285713</ele><time>2026-05-04T21:01:07.939Z</time></trkpt><trkpt lat="39.0727795" lon="16.2857329"><ele>587.7142857142857</ele><time>2026-05-04T21:01:10.888Z</time></trkpt><trkpt lat="39.0728061" lon="16.2858113"><ele>589.0</ele><time>2026-05-04T21:01:13.888Z</time></trkpt><trkpt lat="39.0728404" lon="16.2858896"><ele>590.7142857142857</ele><time>2026-05-04T21:01:18.888Z</time></trkpt><trkpt lat="39.0728633" lon="16.2859657"><ele>592.4285714285713</ele><time>2026-05-04T21:01:23.875Z</time></trkpt><trkpt lat="39.0729033" lon="16.2860445"><ele>594.1428571428571</ele><time>2026-05-04T21:01:29.889Z</time></trkpt><trkpt lat="39.0729577" lon="16.2860873"><ele>595.8571428571429</ele><time>2026-05-04T21:01:34.888Z</time></trkpt><trkpt lat="39.073031" lon="16.2860737"><ele>597.5714285714287</ele><time>2026-05-04T21:01:39.889Z</time></trkpt><trkpt lat="39.0730834" lon="16.286017"><ele>599.2857142857142</ele><time>2026-05-04T21:01:44.814Z</time></trkpt><trkpt lat="39.0731225" lon="16.2859417"><ele>601.0</ele><time>2026-05-04T21:01:49.794Z</time></trkpt><trkpt lat="39.0731653" lon="16.2858558"><ele>601.0</ele><time>2026-05-04T21:01:55.889Z</time></trkpt><trkpt lat="39.0731945" lon="16.2857684"><ele>601.0</ele><time>2026-05-04T21:02:00.888Z</time></trkpt><trkpt lat="39.0732309" lon="16.2856868"><ele>601.0</ele><time>2026-05-04T21:02:05.889Z</time></trkpt><trkpt lat="39.0732696" lon="16.2856227"><ele>601.0</ele><time>2026-05-04T21:02:10.889Z</time></trkpt><trkpt lat="39.0733175" lon="16.2855494"><ele>601.0</ele><time>2026-05-04T21:02:15.888Z</time></trkpt><trkpt lat="39.0733577" lon="16.2854658"><ele>601.0</ele><time>2026-05-04T21:02:20.855Z</time></trkpt><trkpt lat="39.0733799" lon="16.2853741"><ele>601.0</ele><time>2026-05-04T21:02:25.91Z</time></trkpt><trkpt lat="39.0733884" lon="16.2852813"><ele>599.2857142857142</ele><time>2026-05-04T21:02:30.889Z</time></trkpt><trkpt lat="39.0733968" lon="16.2851988"><ele>597.5714285714287</ele><time>2026-05-04T21:02:35.889Z</time></trkpt><trkpt lat="39.0734298" lon="16.2851139"><ele>595.8571428571429</ele><time>2026-05-04T21:02:40.89Z</time></trkpt><trkpt lat="39.0734684" lon="16.2850338"><ele>594.1428571428571</ele><time>2026-05-04T21:02:45.89Z</time></trkpt><trkpt lat="39.0735078" lon="16.2849555"><ele>592.4285714285713</ele><time>2026-05-04T21:02:50.792Z</time></trkpt><trkpt lat="39.0735469" lon="16.2848723"><ele>590.7142857142857</ele><time>2026-05-04T21:02:55.89Z</time></trkpt><trkpt lat="39.0735881" lon="16.2847925"><ele>589.0</ele><time>2026-05-04T21:03:00.89Z</time></trkpt><trkpt lat="39.0736395" lon="16.2847342"><ele>585.5714285714286</ele><time>2026-05-04T21:03:05.89Z</time></trkpt><trkpt lat="39.0736944" lon="16.2846838"><ele>582.1428571428571</ele><time>2026-05-04T21:03:10.889Z</time></trkpt><trkpt lat="39.073751" lon="16.284631"><ele>578.7142857142857</ele><time>2026-05-04T21:03:15.852Z</time></trkpt><trkpt lat="39.0738058" lon="16.2845778"><ele>575.2857142857142</ele><time>2026-05-04T21:03:20.89Z</time></trkpt><trkpt lat="39.0738722" lon="16.2845295"><ele>571.8571428571429</ele><time>2026-05-04T21:03:26.466Z</time></trkpt><trkpt lat="39.0739324" lon="16.2844902"><ele>568.4285714285713</ele><time>2026-05-04T21:03:31.889Z</time></trkpt><trkpt lat="39.073993" lon="16.2844597"><ele>565.0</ele><time>2026-05-04T21:03:36.889Z</time></trkpt><trkpt lat="39.074055" lon="16.2844227"><ele>569.2857142857142</ele><time>2026-05-04T21:03:41.889Z</time></trkpt><trkpt lat="39.0741194" lon="16.2843831"><ele>573.5714285714286</ele><time>2026-05-04T21:03:46.881Z</time></trkpt><trkpt lat="39.0741875" lon="16.2843409"><ele>577.8571428571429</ele><time>2026-05-04T21:03:51.798Z</time></trkpt><trkpt lat="39.0742468" lon="16.2842989"><ele>582.1428571428571</ele><time>2026-05-04T21:03:56.889Z</time></trkpt><trkpt lat="39.0743055" lon="16.2842505"><ele>586.4285714285714</ele><time>2026-05-04T21:04:01.888Z</time></trkpt><trkpt lat="39.0743729" lon="16.2842133"><ele>590.7142857142857</ele><time>2026-05-04T21:04:06.851Z</time></trkpt><trkpt lat="39.0744438" lon="16.2841885"><ele>595.0</ele><time>2026-05-04T21:04:11.972Z</time></trkpt><trkpt lat="39.0745091" lon="16.2841655"><ele>595.0</ele><time>2026-05-04T21:04:16.877Z</time></trkpt><trkpt lat="39.0744335" lon="16.2841682"><ele>595.0</ele><time>2026-05-04T21:04:26.798Z</time></trkpt><trkpt lat="39.0743484" lon="16.2842041"><ele>595.0</ele><time>2026-05-04T21:04:29.89Z</time></trkpt><trkpt lat="39.0742735" lon="16.2842564"><ele>595.0</ele><time>2026-05-04T21:04:32.892Z</time></trkpt><trkpt lat="39.0742064" lon="16.2843159"><ele>595.0</ele><time>2026-05-04T21:04:35.889Z</time></trkpt><trkpt lat="39.0741395" lon="16.2843809"><ele>595.0</ele><time>2026-05-04T21:04:38.893Z</time></trkpt><trkpt lat="39.07408" lon="16.2844443"><ele>590.0</ele><time>2026-05-04T21:04:41.889Z</time></trkpt><trkpt lat="39.0740033" lon="16.2844893"><ele>585.0</ele><time>2026-05-04T21:04:44.944Z</time></trkpt><trkpt lat="39.0739372" lon="16.2845193"><ele>580.0</ele><time>2026-05-04T21:04:47.27Z</time></trkpt><trkpt lat="39.0738781" lon="16.2845478"><ele>575.0</ele><time>2026-05-04T21:04:49.413Z</time></trkpt><trkpt lat="39.0737832" lon="16.2845964"><ele>570.0</ele><time>2026-05-04T21:04:52.991Z</time></trkpt><trkpt lat="39.0737077" lon="16.2846458"><ele>565.0</ele><time>2026-05-04T21:04:56.374Z</time></trkpt><trkpt lat="39.0736375" lon="16.2847109"><ele>569.0</ele><time>2026-05-04T21:04:59.814Z</time></trkpt><trkpt lat="39.0735935" lon="16.2847767"><ele>573.0</ele><time>2026-05-04T21:05:01.89Z</time></trkpt><trkpt lat="39.0735312" lon="16.2848738"><ele>577.0</ele><time>2026-05-04T21:05:05.015Z</time></trkpt><trkpt lat="39.0734749" lon="16.2849506"><ele>581.0</ele><time>2026-05-04T21:05:07.076Z</time></trkpt><trkpt lat="39.0734157" lon="16.2850198"><ele>585.0</ele><time>2026-05-04T21:05:09.475Z</time></trkpt><trkpt lat="39.0733816" lon="16.2851038"><ele>589.0</ele><time>2026-05-04T21:05:11.533Z</time></trkpt><trkpt lat="39.0733685" lon="16.2852019"><ele>589.0</ele><time>2026-05-04T21:05:13.948Z</time></trkpt><trkpt lat="39.0733631" lon="16.2853303"><ele>589.0</ele><time>2026-05-04T21:05:17.435Z</time></trkpt><trkpt lat="39.0733593" lon="16.2854204"><ele>589.0</ele><time>2026-05-04T21:05:19.598Z</time></trkpt><trkpt lat="39.0733422" lon="16.2855175"><ele>589.0</ele><time>2026-05-04T21:05:21.89Z</time></trkpt><trkpt lat="39.0733212" lon="16.2855977"><ele>589.0</ele><time>2026-05-04T21:05:23.889Z</time></trkpt><trkpt lat="39.073299" lon="16.2856743"><ele>589.0</ele><time>2026-05-04T21:05:25.944Z</time></trkpt><trkpt lat="39.0732561" lon="16.2857736"><ele>590.7142857142857</ele><time>2026-05-04T21:05:28.888Z</time></trkpt><trkpt lat="39.0732046" lon="16.2858545"><ele>592.4285714285713</ele><time>2026-05-04T21:05:31.833Z</time></trkpt><trkpt lat="39.0731424" lon="16.2859027"><ele>594.1428571428571</ele><time>2026-05-04T21:05:34.89Z</time></trkpt><trkpt lat="39.0730982" lon="16.2859637"><ele>595.8571428571429</ele><time>2026-05-04T21:05:37.889Z</time></trkpt><trkpt lat="39.0730575" lon="16.2860346"><ele>597.5714285714287</ele><time>2026-05-04T21:05:40.798Z</time></trkpt><trkpt lat="39.0730056" lon="16.2861115"><ele>599.2857142857142</ele><time>2026-05-04T21:05:43.896Z</time></trkpt><trkpt lat="39.0729375" lon="16.2861543"><ele>601.0</ele><time>2026-05-04T21:05:46.991Z</time></trkpt><trkpt lat="39.0728685" lon="16.286117"><ele>601.0</ele><time>2026-05-04T21:05:50.79Z</time></trkpt><trkpt lat="39.0728501" lon="16.2860166"><ele>601.0</ele><time>2026-05-04T21:05:54.002Z</time></trkpt><trkpt lat="39.0728505" lon="16.2859274"><ele>601.0</ele><time>2026-05-04T21:05:56.274Z</time></trkpt><trkpt lat="39.0728389" lon="16.2858373"><ele>601.0</ele><time>2026-05-04T21:05:58.398Z</time></trkpt><trkpt lat="39.0728281" lon="16.285747"><ele>601.0</ele><time>2026-05-04T21:06:00.531Z</time></trkpt><trkpt lat="39.0728271" lon="16.2856465"><ele>601.0</ele><time>2026-05-04T21:06:02.991Z</time></trkpt><trkpt lat="39.0728329" lon="16.2855239"><ele>599.2857142857142</ele><time>2026-05-04T21:06:06.068Z</time></trkpt><trkpt lat="39.0728227" lon="16.2854171"><ele>597.5714285714287</ele><time>2026-05-04T21:06:08.815Z</time></trkpt><trkpt lat="39.0728024" lon="16.2853325"><ele>595.8571428571429</ele><time>2026-05-04T21:06:11.037Z</time></trkpt><trkpt lat="39.0727765" lon="16.2852204"><ele>594.1428571428571</ele><time>2026-05-04T21:06:13.976Z</time></trkpt><trkpt lat="39.0727707" lon="16.2851367"><ele>592.4285714285713</ele><time>2026-05-04T21:06:15.89Z</time></trkpt><trkpt lat="39.0727577" lon="16.2850487"><ele>590.7142857142857</ele><time>2026-05-04T21:06:17.89Z</time></trkpt><trkpt lat="39.0727384" lon="16.2849612"><ele>589.0</ele><time>2026-05-04T21:06:19.924Z</time></trkpt><trkpt lat="39.0727111" lon="16.2848618"><ele>586.0</ele><time>2026-05-04T21:06:22.888Z</time></trkpt><trkpt lat="39.072688" lon="16.2847536"><ele>583.0</ele><time>2026-05-04T21:06:25.812Z</time></trkpt><trkpt lat="39.0726605" lon="16.2846564"><ele>580.0</ele><time>2026-05-04T21:06:28.895Z</time></trkpt><trkpt lat="39.0726217" lon="16.2845665"><ele>577.0</ele><time>2026-05-04T21:06:31.888Z</time></trkpt><trkpt lat="39.072586" lon="16.2844675"><ele>574.0</ele><time>2026-05-04T21:06:34.889Z</time></trkpt><trkpt lat="39.0725516" lon="16.2843673"><ele>571.0</ele><time>2026-05-04T21:06:37.889Z</time></trkpt><trkpt lat="39.0725095" lon="16.2842606"><ele>571.0</ele><time>2026-05-04T21:06:40.888Z</time></trkpt><trkpt lat="39.0724642" lon="16.284156"><ele>571.0</ele><time>2026-05-04T21:06:43.888Z</time></trkpt><trkpt lat="39.0724277" lon="16.2840883"><ele>571.0</ele><time>2026-05-04T21:06:45.889Z</time></trkpt><trkpt lat="39.0723796" lon="16.2839913"><ele>571.0</ele><time>2026-05-04T21:06:48.889Z</time></trkpt><trkpt lat="39.0723395" lon="16.2838995"><ele>571.0</ele><time>2026-05-04T21:06:51.889Z</time></trkpt><trkpt lat="39.0722782" lon="16.2838329"><ele>571.0</ele><time>2026-05-04T21:06:54.889Z</time></trkpt><trkpt lat="39.0721987" lon="16.2838063"><ele>571.1666666666667</ele><time>2026-05-04T21:06:57.889Z</time></trkpt><trkpt lat="39.0721124" lon="16.2838225"><ele>571.3333333333334</ele><time>2026-05-04T21:07:00.889Z</time></trkpt><trkpt lat="39.0720341" lon="16.2838528"><ele>571.5</ele><time>2026-05-04T21:07:03.889Z</time></trkpt><trkpt lat="39.0719572" lon="16.2839069"><ele>571.6666666666666</ele><time>2026-05-04T21:07:06.896Z</time></trkpt><trkpt lat="39.071898" lon="16.2839636"><ele>571.8333333333333</ele><time>2026-05-04T21:07:09.889Z</time></trkpt><trkpt lat="39.0718446" lon="16.2840106"><ele>572.0</ele><time>2026-05-04T21:07:11.89Z</time></trkpt><trkpt lat="39.0717919" lon="16.2840576"><ele>572.0</ele><time>2026-05-04T21:07:15.889Z</time></trkpt></trkseg></trk></gpx>